Wetterdaten: Donnerstag, 08.12.2022
Datum Zeit Temp. Aussen Temp. o. S. Temp +5cm Feuchte Auss Luftdruck Regen Sonnenschein Regendauer Solar Windben Empfang
08.12.2022 00:00 3,7 C 3,3 C 1,1 C 96 % 1012,3 hPa 0,0 l/m 0 min 0 min 0 W/m 3,2 km/h (1 Bft) 95,74 %
08.12.2022 00:02 3,7 C 3,3 C 1,1 C 96 % 1012,2 hPa 0,0 l/m 0 min 0 min 0 W/m 9,7 km/h (2 Bft) 90,70 %
08.12.2022 00:04 3,7 C 3,3 C 1,1 C 96 % 1012,2 hPa 0,0 l/m 0 min 0 min 0 W/m 6,4 km/h (2 Bft) 92,86 %
08.12.2022 00:08 3,7 C 3,3 C 1,1 C 96 % 1012,2 hPa 0,0 l/m 0 min 0 min 0 W/m 3,2 km/h (1 Bft) 94,95 %
08.12.2022 00:10 3,7 C 3,3 C 1,1 C 96 % 1012,1 hPa 0,0 l/m 0 min 0 min 0 W/m 12,9 km/h (3 Bft) 95,74 %
08.12.2022 00:12 3,7 C 3,3 C 1,1 C 96 % 1012,0 hPa 0,0 l/m 0 min 0 min 0 W/m 6,4 km/h (2 Bft) 93,62 %
08.12.2022 00:14 3,7 C 2,8 C 1,1 C 96 % 1012,1 hPa 0,0 l/m 0 min 0 min 0 W/m 3,2 km/h (1 Bft) 95,74 %
08.12.2022 00:16 3,7 C 2,8 C 1,1 C 96 % 1012,0 hPa 0,0 l/m 0 min 0 min 0 W/m 12,9 km/h (3 Bft) 93,62 %
08.12.2022 00:18 3,7 C 2,8 C 1,1 C 96 % 1012,0 hPa 0,0 l/m 0 min 0 min 0 W/m 6,4 km/h (2 Bft) 95,74 %
08.12.2022 00:20 3,6 C 2,8 C 1,1 C 96 % 1012,0 hPa 0,0 l/m 0 min 0 min 0 W/m 6,4 km/h (2 Bft) 95,65 %
08.12.2022 00:22 3,6 C 2,8 C 1,1 C 96 % 1012,0 hPa 0,0 l/m 0 min 0 min 0 W/m 6,4 km/h (2 Bft) 91,49 %
08.12.2022 00:24 3,6 C 2,8 C 1,1 C 96 % 1012,0 hPa 0,0 l/m 0 min 0 min 0 W/m 9,7 km/h (2 Bft) 97,87 %
08.12.2022 00:26 3,6 C 2,8 C 1,1 C 96 % 1011,9 hPa 0,0 l/m 0 min 0 min 0 W/m 6,4 km/h (2 Bft) 95,74 %
08.12.2022 00:28 3,6 C 2,8 C 1,1 C 96 % 1011,9 hPa 0,0 l/m 0 min 0 min 0 W/m 6,4 km/h (2 Bft) 97,87 %
08.12.2022 00:30 3,6 C 2,8 C 1,1 C 96 % 1011,9 hPa 0,0 l/m 0 min 0 min 0 W/m 6,4 km/h (2 Bft) 91,49 %
08.12.2022 00:32 3,6 C 2,8 C 1,1 C 96 % 1012,0 hPa 0,0 l/m 0 min 0 min 0 W/m 12,9 km/h (3 Bft) 95,74 %
08.12.2022 00:34 3,6 C 2,8 C 1,1 C 96 % 1011,9 hPa 0,0 l/m 0 min 0 min 0 W/m 6,4 km/h (2 Bft) 93,48 %
08.12.2022 00:36 3,6 C 2,8 C 1,1 C 96 % 1011,9 hPa 0,0 l/m 0 min 0 min 0 W/m 3,2 km/h (1 Bft) 95,74 %
08.12.2022 00:38 3,6 C 2,8 C 1,1 C 96 % 1011,9 hPa 0,0 l/m 0 min 0 min 0 W/m 6,4 km/h (2 Bft) 95,74 %
08.12.2022 00:40 3,6 C 2,8 C 1,1 C 96 % 1011,9 hPa 0,0 l/m 0 min 0 min 0 W/m 6,4 km/h (2 Bft) 93,62 %
08.12.2022 00:42 3,6 C 2,8 C 1,1 C 96 % 1011,9 hPa 0,0 l/m 0 min 0 min 0 W/m 0,0 km/h (0 Bft) 95,74 %
08.12.2022 00:44 3,5 C 2,8 C 1,1 C 96 % 1011,8 hPa 0,0 l/m 0 min 0 min 0 W/m 0,0 km/h (0 Bft) 97,87 %
08.12.2022 00:46 3,5 C 2,8 C 1,1 C 96 % 1011,8 hPa 0,0 l/m 0 min 0 min 0 W/m 0,0 km/h (0 Bft) 93,62 %
08.12.2022 00:48 3,5 C 2,8 C 1,1 C 96 % 1011,8 hPa 0,0 l/m 0 min 0 min 0 W/m 0,0 km/h (0 Bft) 100,00 %
08.12.2022 00:50 3,5 C 2,8 C 1,1 C 96 % 1011,8 hPa 0,0 l/m 0 min 0 min 0 W/m 0,0 km/h (0 Bft) 97,87 %
08.12.2022 00:52 3,5 C 2,8 C 1,1 C 96 % 1011,7 hPa 0,0 l/m 0 min 0 min 0 W/m 0,0 km/h (0 Bft) 97,87 %
08.12.2022 00:58 3,4 C 2,8 C 0,6 C 96 % 1011,7 hPa 0,0 l/m 0 min 0 min 0 W/m 0,0 km/h (0 Bft) 100,00 %
08.12.2022 01:00 3,4 C 2,8 C 0,6 C 96 % 1011,6 hPa 0,0 l/m 0 min 0 min 0 W/m 0,0 km/h (0 Bft) 94,29 %
08.12.2022 01:02 3,4 C 2,8 C 1,1 C 96 % 1011,6 hPa 0,0 l/m 0 min 0 min 0 W/m 0,0 km/h (0 Bft) 95,74 %
08.12.2022 01:04 3,4 C 2,8 C 1,1 C 96 % 1011,6 hPa 0,0 l/m 0 min 0 min 0 W/m 0,0 km/h (0 Bft) 100,00 %
08.12.2022 01:06 3,4 C 2,8 C 1,1 C 96 % 1011,5 hPa 0,0 l/m 0 min 0 min 0 W/m 0,0 km/h (0 Bft) 98,28 %
08.12.2022 01:08 3,4 C 2,8 C 1,1 C 96 % 1011,6 hPa 0,0 l/m 0 min 0 min 0 W/m 0,0 km/h (0 Bft) 100,00 %
08.12.2022 01:10 3,4 C 2,8 C 1,1 C 96 % 1011,5 hPa 0,0 l/m 0 min 0 min 0 W/m 0,0 km/h (0 Bft) 100,00 %
08.12.2022 01:12 3,4 C 2,8 C 0,6 C 96 % 1011,5 hPa 0,0 l/m 0 min 0 min 0 W/m 12,9 km/h (3 Bft) 97,87 %
08.12.2022 01:14 3,4 C 2,8 C 0,6 C 96 % 1011,4 hPa 0,0 l/m 0 min 0 min 0 W/m 6,4 km/h (2 Bft) 100,00 %
08.12.2022 01:16 3,4 C 2,8 C 0,6 C 96 % 1011,4 hPa 0,0 l/m 0 min 0 min 0 W/m 6,4 km/h (2 Bft) 97,87 %
08.12.2022 01:18 3,4 C 2,8 C 0,6 C 96 % 1011,4 hPa 0,0 l/m 0 min 0 min 0 W/m 3,2 km/h (1 Bft) 100,00 %
08.12.2022 01:20 3,4 C 2,8 C 0,6 C 96 % 1011,4 hPa 0,0 l/m 0 min 0 min 0 W/m 12,9 km/h (3 Bft) 100,00 %
08.12.2022 01:22 3,4 C 2,8 C 0,6 C 96 % 1011,3 hPa 0,0 l/m 0 min 0 min 0 W/m 6,4 km/h (2 Bft) 100,00 %
08.12.2022 01:24 3,4 C 2,8 C 0,6 C 96 % 1011,3 hPa 0,0 l/m 0 min 0 min 0 W/m 3,2 km/h (1 Bft) 95,74 %
08.12.2022 01:26 3,4 C 2,8 C 0,6 C 96 % 1011,2 hPa 0,0 l/m 0 min 0 min 0 W/m 6,4 km/h (2 Bft) 100,00 %
08.12.2022 01:28 3,4 C 2,8 C 0,6 C 96 % 1011,2 hPa 0,0 l/m 0 min 0 min 0 W/m 6,4 km/h (2 Bft) 100,00 %
08.12.2022 01:30 3,4 C 2,8 C 0,6 C 96 % 1011,2 hPa 0,0 l/m 0 min 0 min 0 W/m 3,2 km/h (1 Bft) 100,00 %
08.12.2022 01:32 3,4 C 2,8 C 0,6 C 96 % 1011,2 hPa 0,0 l/m 0 min 0 min 0 W/m 6,4 km/h (2 Bft) 97,87 %
08.12.2022 01:34 3,3 C 2,8 C 0,6 C 96 % 1011,2 hPa 0,0 l/m 0 min 0 min 0 W/m 3,2 km/h (1 Bft) 100,00 %
08.12.2022 01:36 3,4 C 2,8 C 0,6 C 96 % 1011,2 hPa 0,0 l/m 0 min 0 min 0 W/m 0,0 km/h (0 Bft) 100,00 %
08.12.2022 01:38 3,3 C 2,8 C 0,6 C 96 % 1011,1 hPa 0,0 l/m 0 min 0 min 0 W/m 6,4 km/h (2 Bft) 100,00 %
08.12.2022 01:40 3,3 C 2,8 C 0,6 C 96 % 1011,1 hPa 0,0 l/m 0 min 0 min 0 W/m 6,4 km/h (2 Bft) 97,87 %
08.12.2022 01:42 3,3 C 2,8 C 0,6 C 96 % 1011,1 hPa 0,0 l/m 0 min 0 min 0 W/m 12,9 km/h (3 Bft) 100,00 %
08.12.2022 01:44 3,3 C 2,8 C 0,6 C 96 % 1011,0 hPa 0,0 l/m 0 min 0 min 0 W/m 3,2 km/h (1 Bft) 100,00 %
08.12.2022 01:46 3,3 C 2,8 C 0,6 C 96 % 1011,1 hPa 0,0 l/m 0 min 0 min 0 W/m 3,2 km/h (1 Bft) 97,87 %
08.12.2022 01:48 3,3 C 2,8 C 0,6 C 96 % 1011,1 hPa 0,0 l/m 0 min 0 min 0 W/m 6,4 km/h (2 Bft) 97,87 %
08.12.2022 01:50 3,3 C 2,8 C 0,6 C 96 % 1011,0 hPa 0,0 l/m 0 min 0 min 0 W/m 3,2 km/h (1 Bft) 97,83 %
08.12.2022 01:52 3,3 C 2,8 C 0,6 C 96 % 1011,0 hPa 0,0 l/m 0 min 0 min 0 W/m 3,2 km/h (1 Bft) 97,87 %
08.12.2022 01:54 3,3 C 2,8 C 0,6 C 96 % 1011,0 hPa 0,0 l/m 0 min 0 min 0 W/m 3,2 km/h (1 Bft) 100,00 %
08.12.2022 01:56 3,3 C 2,8 C 0,6 C 96 % 1011,0 hPa 0,0 l/m 0 min 0 min 0 W/m 12,9 km/h (3 Bft) 97,87 %
08.12.2022 01:58 3,3 C 2,8 C 0,6 C 96 % 1011,0 hPa 0,0 l/m 0 min 0 min 0 W/m 6,4 km/h (2 Bft) 97,87 %
08.12.2022 02:00 3,3 C 2,8 C 0,6 C 96 % 1011,0 hPa 0,0 l/m 0 min 0 min 0 W/m 6,4 km/h (2 Bft) 97,87 %
08.12.2022 02:02 3,3 C 2,8 C 0,6 C 96 % 1011,0 hPa 0,0 l/m 0 min 0 min 0 W/m 6,4 km/h (2 Bft) 97,87 %
08.12.2022 02:04 3,3 C 2,8 C 0,6 C 96 % 1011,0 hPa 0,0 l/m 0 min 0 min 0 W/m 6,4 km/h (2 Bft) 97,87 %
08.12.2022 02:06 3,3 C 2,8 C 0,6 C 96 % 1011,0 hPa 0,0 l/m 0 min 0 min 0 W/m 6,4 km/h (2 Bft) 100,00 %
08.12.2022 02:08 3,3 C 2,8 C 0,6 C 96 % 1011,0 hPa 0,0 l/m 0 min 0 min 0 W/m 3,2 km/h (1 Bft) 100,00 %
08.12.2022 02:10 3,3 C 2,8 C 1,1 C 96 % 1011,0 hPa 0,0 l/m 0 min 0 min 0 W/m 6,4 km/h (2 Bft) 97,87 %
08.12.2022 02:17 3,4 C 2,8 C 1,1 C 96 % 1010,9 hPa 0,0 l/m 0 min 0 min 0 W/m 6,4 km/h (2 Bft) 95,56 %
08.12.2022 02:18 3,4 C 2,8 C 1,1 C 96 % 1010,9 hPa 0,0 l/m 0 min 0 min 0 W/m 6,4 km/h (2 Bft) 100,00 %
08.12.2022 02:20 3,4 C 2,8 C 1,1 C 96 % 1011,0 hPa 0,0 l/m 0 min 0 min 0 W/m 6,4 km/h (2 Bft) 95,74 %
08.12.2022 02:22 3,4 C 2,8 C 1,1 C 96 % 1011,0 hPa 0,0 l/m 0 min 0 min 0 W/m 9,7 km/h (2 Bft) 91,49 %
08.12.2022 02:24 3,4 C 2,8 C 1,1 C 96 % 1011,0 hPa 0,0 l/m 0 min 0 min 0 W/m 16,1 km/h (3 Bft) 93,62 %
08.12.2022 02:26 3,5 C 3,3 C 1,1 C 97 % 1011,0 hPa 0,0 l/m 0 min 0 min 0 W/m 6,4 km/h (2 Bft) 95,65 %
08.12.2022 02:28 3,5 C 3,3 C 1,1 C 97 % 1011,0 hPa 0,0 l/m 0 min 0 min 0 W/m 3,2 km/h (1 Bft) 93,62 %
08.12.2022 02:30 3,5 C 3,3 C 1,1 C 97 % 1011,0 hPa 0,0 l/m 0 min 0 min 0 W/m 12,9 km/h (3 Bft) 95,74 %
08.12.2022 02:32 3,6 C 3,3 C 1,1 C 97 % 1010,9 hPa 0,0 l/m 0 min 0 min 0 W/m 12,9 km/h (3 Bft) 95,74 %
08.12.2022 02:34 3,6 C 3,3 C 1,1 C 97 % 1010,9 hPa 0,0 l/m 0 min 0 min 0 W/m 12,9 km/h (3 Bft) 93,62 %
08.12.2022 02:36 3,6 C 3,3 C 1,1 C 97 % 1010,9 hPa 0,0 l/m 0 min 0 min 0 W/m 6,4 km/h (2 Bft) 95,74 %
08.12.2022 02:38 3,6 C 3,3 C 1,1 C 97 % 1010,8 hPa 0,0 l/m 0 min 0 min 0 W/m 6,4 km/h (2 Bft) 95,74 %
08.12.2022 02:40 3,6 C 3,3 C 1,1 C 97 % 1010,9 hPa 0,0 l/m 0 min 0 min 0 W/m 6,4 km/h (2 Bft) 91,30 %
08.12.2022 02:42 3,6 C 3,3 C 1,1 C 97 % 1010,9 hPa 0,0 l/m 0 min 0 min 0 W/m 6,4 km/h (2 Bft) 95,74 %
08.12.2022 02:44 3,6 C 3,3 C 1,1 C 97 % 1010,9 hPa 0,0 l/m 0 min 0 min 0 W/m 9,7 km/h (2 Bft) 95,74 %
08.12.2022 02:46 3,6 C 3,3 C 1,1 C 97 % 1010,9 hPa 0,0 l/m 0 min 0 min 0 W/m 6,4 km/h (2 Bft) 93,62 %
08.12.2022 02:48 3,6 C 3,3 C 1,1 C 97 % 1010,9 hPa 0,0 l/m 0 min 0 min 0 W/m 6,4 km/h (2 Bft) 97,87 %
08.12.2022 02:50 3,6 C 3,3 C 1,1 C 97 % 1010,9 hPa 0,0 l/m 0 min 0 min 0 W/m 12,9 km/h (3 Bft) 89,36 %
08.12.2022 02:52 3,6 C 3,3 C 1,1 C 97 % 1010,8 hPa 0,0 l/m 0 min 0 min 0 W/m 6,4 km/h (2 Bft) 100,00 %
08.12.2022 02:54 3,6 C 3,3 C 1,1 C 97 % 1010,9 hPa 0,0 l/m 0 min 0 min 0 W/m 6,4 km/h (2 Bft) 100,00 %
08.12.2022 02:56 3,6 C 3,3 C 1,1 C 97 % 1010,9 hPa 0,0 l/m 0 min 0 min 0 W/m 12,9 km/h (3 Bft) 100,00 %
08.12.2022 02:58 3,6 C 3,3 C 1,1 C 97 % 1010,9 hPa 0,0 l/m 0 min 0 min 0 W/m 6,4 km/h (2 Bft) 97,87 %
08.12.2022 03:00 3,7 C 3,3 C 1,1 C 97 % 1010,9 hPa 0,0 l/m 0 min 0 min 0 W/m 12,9 km/h (3 Bft) 97,87 %
08.12.2022 03:02 3,7 C 3,3 C 1,1 C 96 % 1010,8 hPa 0,0 l/m 0 min 0 min 0 W/m 3,2 km/h (1 Bft) 97,87 %
08.12.2022 03:04 3,7 C 3,3 C 1,1 C 96 % 1010,7 hPa 0,0 l/m 0 min 0 min 0 W/m 12,9 km/h (3 Bft) 95,74 %
08.12.2022 03:06 3,6 C 3,3 C 1,1 C 97 % 1010,7 hPa 0,0 l/m 0 min 0 min 0 W/m 6,4 km/h (2 Bft) 96,23 %
08.12.2022 03:08 3,6 C 3,3 C 1,1 C 97 % 1010,7 hPa 0,0 l/m 0 min 0 min 0 W/m 6,4 km/h (2 Bft) 97,83 %
08.12.2022 03:10 3,7 C 3,3 C 1,1 C 96 % 1010,7 hPa 0,0 l/m 0 min 0 min 0 W/m 3,2 km/h (1 Bft) 97,87 %
08.12.2022 03:12 3,7 C 3,3 C 1,1 C 96 % 1010,7 hPa 0,0 l/m 0 min 0 min 0 W/m 6,4 km/h (2 Bft) 97,87 %
08.12.2022 03:14 3,7 C 3,3 C 1,1 C 96 % 1010,7 hPa 0,0 l/m 0 min 0 min 0 W/m 6,4 km/h (2 Bft) 97,87 %
08.12.2022 03:16 3,7 C 3,3 C 1,1 C 96 % 1010,7 hPa 0,0 l/m 0 min 0 min 0 W/m 6,4 km/h (2 Bft) 97,87 %
08.12.2022 03:18 3,7 C 3,3 C 1,1 C 96 % 1010,6 hPa 0,0 l/m 0 min 0 min 0 W/m 12,9 km/h (3 Bft) 97,87 %
08.12.2022 03:20 3,7 C 3,3 C 1,1 C 96 % 1010,6 hPa 0,0 l/m 0 min 0 min 0 W/m 6,4 km/h (2 Bft) 97,87 %
08.12.2022 03:22 3,7 C 3,3 C 1,1 C 96 % 1010,5 hPa 0,0 l/m 0 min 0 min 0 W/m 6,4 km/h (2 Bft) 97,87 %
08.12.2022 03:24 3,7 C 3,3 C 1,1 C 96 % 1010,6 hPa 0,0 l/m 0 min 0 min 0 W/m 6,4 km/h (2 Bft) 93,62 %
08.12.2022 03:26 3,7 C 3,3 C 1,1 C 96 % 1010,5 hPa 0,0 l/m 0 min 0 min 0 W/m 6,4 km/h (2 Bft) 97,83 %
08.12.2022 03:28 3,7 C 3,3 C 1,1 C 96 % 1010,5 hPa 0,0 l/m 0 min 0 min 0 W/m 6,4 km/h (2 Bft) 95,74 %
08.12.2022 03:30 3,7 C 3,3 C 1,1 C 96 % 1010,5 hPa 0,0 l/m 0 min 0 min 0 W/m 6,4 km/h (2 Bft) 97,87 %
08.12.2022 03:32 3,7 C 3,3 C 1,1 C 96 % 1010,5 hPa 0,0 l/m 0 min 0 min 0 W/m 3,2 km/h (1 Bft) 97,87 %
08.12.2022 03:34 3,7 C 3,3 C 1,1 C 96 % 1010,4 hPa 0,0 l/m 0 min 0 min 0 W/m 6,4 km/h (2 Bft) 95,74 %
08.12.2022 03:36 3,7 C 3,3 C 1,1 C 96 % 1010,4 hPa 0,0 l/m 0 min 0 min 0 W/m 12,9 km/h (3 Bft) 97,87 %
08.12.2022 03:38 3,7 C 3,3 C 1,1 C 96 % 1010,4 hPa 0,0 l/m 0 min 0 min 0 W/m 6,4 km/h (2 Bft) 95,65 %
08.12.2022 03:40 3,7 C 3,3 C 1,1 C 96 % 1010,4 hPa 0,0 l/m 0 min 0 min 0 W/m 6,4 km/h (2 Bft) 97,87 %
08.12.2022 03:42 3,7 C 3,3 C 1,1 C 96 % 1010,4 hPa 0,0 l/m 0 min 0 min 0 W/m 9,7 km/h (2 Bft) 95,74 %
08.12.2022 03:44 3,7 C 3,3 C 1,1 C 96 % 1010,3 hPa 0,0 l/m 0 min 0 min 0 W/m 6,4 km/h (2 Bft) 97,87 %
08.12.2022 03:46 3,7 C 3,3 C 1,1 C 96 % 1010,3 hPa 0,0 l/m 0 min 0 min 0 W/m 12,9 km/h (3 Bft) 97,87 %
08.12.2022 03:48 3,7 C 3,3 C 1,1 C 96 % 1010,3 hPa 0,0 l/m 0 min 0 min 0 W/m 3,2 km/h (1 Bft) 95,74 %
08.12.2022 03:50 3,7 C 3,3 C 1,1 C 96 % 1010,2 hPa 0,0 l/m 0 min 0 min 0 W/m 12,9 km/h (3 Bft) 97,87 %
08.12.2022 03:52 3,7 C 3,3 C 1,1 C 96 % 1010,2 hPa 0,0 l/m 0 min 0 min 0 W/m 6,4 km/h (2 Bft) 97,87 %
08.12.2022 03:54 3,7 C 3,3 C 1,1 C 96 % 1010,1 hPa 0,0 l/m 0 min 0 min 0 W/m 6,4 km/h (2 Bft) 100,00 %
08.12.2022 03:56 3,7 C 3,3 C 1,1 C 96 % 1010,1 hPa 0,0 l/m 0 min 0 min 0 W/m 12,9 km/h (3 Bft) 100,00 %
08.12.2022 03:58 3,7 C 3,3 C 1,1 C 96 % 1010,1 hPa 0,0 l/m 0 min 0 min 0 W/m 9,7 km/h (2 Bft) 100,00 %
08.12.2022 04:00 3,7 C 3,3 C 1,1 C 96 % 1010,1 hPa 0,0 l/m 0 min 0 min 0 W/m 9,7 km/h (2 Bft) 100,00 %
08.12.2022 04:02 3,7 C 3,3 C 1,1 C 96 % 1010,1 hPa 0,0 l/m 0 min 0 min 0 W/m 3,2 km/h (1 Bft) 100,00 %
08.12.2022 04:04 3,7 C 3,3 C 1,1 C 96 % 1010,1 hPa 0,0 l/m 0 min 0 min 0 W/m 12,9 km/h (3 Bft) 100,00 %
08.12.2022 04:06 3,7 C 3,3 C 1,1 C 96 % 1010,0 hPa 0,0 l/m 0 min 0 min 0 W/m 6,4 km/h (2 Bft) 97,92 %
08.12.2022 04:08 3,7 C 3,3 C 1,1 C 96 % 1010,1 hPa 0,0 l/m 0 min 0 min 0 W/m 12,9 km/h (3 Bft) 100,00 %
08.12.2022 04:10 3,7 C 3,3 C 1,1 C 96 % 1010,1 hPa 0,0 l/m 0 min 0 min 0 W/m 16,1 km/h (3 Bft) 97,87 %
08.12.2022 04:15 3,7 C 3,3 C 1,1 C 96 % 1010,1 hPa 0,0 l/m 0 min 0 min 0 W/m 6,4 km/h (2 Bft) 100,00 %
08.12.2022 04:20 3,7 C 3,3 C 1,1 C 96 % 1009,9 hPa 0,0 l/m 0 min 0 min 0 W/m 12,9 km/h (3 Bft) 99,12 %
08.12.2022 04:25 3,7 C 3,3 C 1,1 C 96 % 1009,8 hPa 0,0 l/m 0 min 0 min 0 W/m 16,1 km/h (3 Bft) 100,00 %
08.12.2022 04:30 3,7 C 3,3 C 1,1 C 96 % 1009,8 hPa 0,0 l/m 0 min 0 min 0 W/m 12,9 km/h (3 Bft) 99,12 %
08.12.2022 04:35 3,7 C 3,3 C 1,1 C 96 % 1009,8 hPa 0,0 l/m 0 min 0 min 0 W/m 16,1 km/h (3 Bft) 100,00 %
08.12.2022 04:40 3,7 C 3,3 C 1,1 C 96 % 1009,7 hPa 0,0 l/m 0 min 0 min 0 W/m 16,1 km/h (3 Bft) 96,49 %
08.12.2022 04:45 3,7 C 3,3 C 1,1 C 96 % 1009,6 hPa 0,0 l/m 0 min 0 min 0 W/m 9,7 km/h (2 Bft) 98,25 %
08.12.2022 04:50 3,7 C 3,3 C 1,1 C 96 % 1009,6 hPa 0,0 l/m 0 min 0 min 0 W/m 3,2 km/h (1 Bft) 100,00 %
08.12.2022 04:55 3,8 C 3,3 C 1,1 C 96 % 1009,4 hPa 0,0 l/m 0 min 0 min 0 W/m 3,2 km/h (1 Bft) 100,00 %
08.12.2022 05:00 3,8 C 3,3 C 1,1 C 96 % 1009,4 hPa 0,0 l/m 0 min 0 min 0 W/m 6,4 km/h (2 Bft) 100,00 %
08.12.2022 05:04 3,8 C 3,3 C 1,1 C 96 % 1009,4 hPa 0,0 l/m 0 min 0 min 0 W/m 3,2 km/h (1 Bft) 100,00 %
08.12.2022 05:09 3,8 C 3,3 C 1,1 C 96 % 1009,3 hPa 0,0 l/m 0 min 0 min 0 W/m 16,1 km/h (3 Bft) 100,00 %
08.12.2022 05:10 3,8 C 3,3 C 1,1 C 96 % 1009,3 hPa 0,0 l/m 0 min 0 min 0 W/m 3,2 km/h (1 Bft) 95,65 %
08.12.2022 05:12 3,8 C 3,3 C 1,1 C 96 % 1009,3 hPa 0,0 l/m 0 min 0 min 0 W/m 12,9 km/h (3 Bft) 95,74 %
08.12.2022 05:14 3,8 C 3,3 C 1,1 C 96 % 1009,3 hPa 0,0 l/m 0 min 0 min 0 W/m 19,3 km/h (3 Bft) 97,87 %
08.12.2022 05:16 3,8 C 3,3 C 1,1 C 96 % 1009,3 hPa 0,0 l/m 0 min 0 min 0 W/m 9,7 km/h (2 Bft) 97,87 %
08.12.2022 05:18 3,8 C 3,3 C 1,1 C 96 % 1009,2 hPa 0,0 l/m 0 min 0 min 0 W/m 16,1 km/h (3 Bft) 97,83 %
08.12.2022 05:20 3,8 C 3,3 C 1,1 C 96 % 1009,2 hPa 0,0 l/m 0 min 0 min 0 W/m 6,4 km/h (2 Bft) 97,87 %
08.12.2022 05:22 3,8 C 3,3 C 1,1 C 96 % 1009,2 hPa 0,0 l/m 0 min 0 min 0 W/m 6,4 km/h (2 Bft) 100,00 %
08.12.2022 05:24 3,8 C 3,3 C 1,1 C 96 % 1009,2 hPa 0,0 l/m 0 min 0 min 0 W/m 9,7 km/h (2 Bft) 100,00 %
08.12.2022 05:26 3,8 C 3,3 C 1,1 C 96 % 1009,2 hPa 0,0 l/m 0 min 0 min 0 W/m 12,9 km/h (3 Bft) 97,87 %
08.12.2022 05:28 3,8 C 3,3 C 1,1 C 96 % 1009,1 hPa 0,0 l/m 0 min 2 min 0 W/m 3,2 km/h (1 Bft) 100,00 %
08.12.2022 05:30 3,8 C 3,3 C 1,1 C 96 % 1009,2 hPa 0,0 l/m 0 min 0 min 0 W/m 6,4 km/h (2 Bft) 100,00 %
08.12.2022 05:32 3,8 C 3,3 C 1,1 C 96 % 1009,1 hPa 0,0 l/m 0 min 0 min 0 W/m 6,4 km/h (2 Bft) 100,00 %
08.12.2022 05:34 3,8 C 3,3 C 1,1 C 96 % 1009,1 hPa 0,0 l/m 0 min 0 min 0 W/m 16,1 km/h (3 Bft) 100,00 %
08.12.2022 05:36 3,8 C 3,3 C 1,1 C 96 % 1009,1 hPa 0,0 l/m 0 min 2 min 0 W/m 12,9 km/h (3 Bft) 100,00 %
08.12.2022 05:38 3,8 C 3,3 C 1,1 C 96 % 1009,1 hPa 0,0 l/m 0 min 0 min 0 W/m 12,9 km/h (3 Bft) 100,00 %
08.12.2022 05:40 3,8 C 3,3 C 1,1 C 96 % 1009,0 hPa 0,0 l/m 0 min 0 min 0 W/m 6,4 km/h (2 Bft) 100,00 %
08.12.2022 05:42 3,8 C 3,3 C 1,1 C 96 % 1009,1 hPa 0,0 l/m 0 min 0 min 0 W/m 6,4 km/h (2 Bft) 100,00 %
08.12.2022 05:44 3,8 C 3,3 C 1,1 C 96 % 1009,1 hPa 0,0 l/m 0 min 0 min 0 W/m 0,0 km/h (0 Bft) 100,00 %
08.12.2022 05:46 3,8 C 3,3 C 1,1 C 96 % 1009,1 hPa 0,0 l/m 0 min 0 min 0 W/m 12,9 km/h (3 Bft) 100,00 %
08.12.2022 05:48 3,8 C 3,3 C 1,1 C 96 % 1009,1 hPa 0,0 l/m 0 min 0 min 0 W/m 6,4 km/h (2 Bft) 100,00 %
08.12.2022 05:50 3,8 C 3,3 C 1,1 C 96 % 1009,1 hPa 0,0 l/m 0 min 0 min 0 W/m 3,2 km/h (1 Bft) 100,00 %
08.12.2022 05:52 3,8 C 3,3 C 1,1 C 96 % 1009,1 hPa 0,0 l/m 0 min 0 min 0 W/m 16,1 km/h (3 Bft) 100,00 %
08.12.2022 05:54 3,8 C 3,3 C 1,1 C 96 % 1009,0 hPa 0,0 l/m 0 min 0 min 0 W/m 12,9 km/h (3 Bft) 97,87 %
08.12.2022 05:56 3,8 C 3,3 C 1,1 C 96 % 1009,1 hPa 0,0 l/m 0 min 0 min 0 W/m 12,9 km/h (3 Bft) 100,00 %
08.12.2022 05:58 3,8 C 3,3 C 1,1 C 96 % 1009,1 hPa 0,0 l/m 0 min 0 min 0 W/m 16,1 km/h (3 Bft) 100,00 %
08.12.2022 06:00 3,8 C 3,3 C 1,1 C 96 % 1009,0 hPa 0,0 l/m 0 min 0 min 0 W/m 12,9 km/h (3 Bft) 97,87 %
08.12.2022 06:02 3,8 C 3,3 C 1,1 C 96 % 1009,0 hPa 0,0 l/m 0 min 0 min 0 W/m 6,4 km/h (2 Bft) 97,83 %
08.12.2022 06:04 3,8 C 3,3 C 1,1 C 96 % 1009,0 hPa 0,0 l/m 0 min 0 min 0 W/m 12,9 km/h (3 Bft) 93,62 %
08.12.2022 06:08 3,8 C 3,3 C 1,1 C 96 % 1009,0 hPa 0,0 l/m 0 min 0 min 0 W/m 16,1 km/h (3 Bft) 95,18 %
08.12.2022 06:10 3,8 C 3,3 C 1,1 C 96 % 1009,0 hPa 0,0 l/m 0 min 0 min 0 W/m 6,4 km/h (2 Bft) 95,74 %
08.12.2022 06:12 3,8 C 3,3 C 1,1 C 96 % 1009,0 hPa 0,0 l/m 0 min 0 min 0 W/m 12,9 km/h (3 Bft) 95,74 %
08.12.2022 06:14 3,8 C 3,3 C 1,1 C 96 % 1009,0 hPa 0,0 l/m 0 min 0 min 0 W/m 16,1 km/h (3 Bft) 95,74 %
08.12.2022 06:16 3,8 C 3,3 C 1,1 C 96 % 1008,9 hPa 0,0 l/m 0 min 0 min 0 W/m 6,4 km/h (2 Bft) 95,74 %
08.12.2022 06:20 3,8 C 3,3 C 1,1 C 96 % 1009,0 hPa 0,0 l/m 0 min 0 min 0 W/m 6,4 km/h (2 Bft) 93,68 %
08.12.2022 06:22 3,9 C 3,3 C 1,1 C 96 % 1009,0 hPa 0,0 l/m 0 min 0 min 0 W/m 16,1 km/h (3 Bft) 91,30 %
08.12.2022 06:24 3,8 C 3,3 C 1,1 C 96 % 1008,9 hPa 0,0 l/m 0 min 0 min 0 W/m 12,9 km/h (3 Bft) 93,62 %
08.12.2022 06:26 3,9 C 3,3 C 1,1 C 96 % 1009,0 hPa 0,0 l/m 0 min 0 min 0 W/m 12,9 km/h (3 Bft) 95,74 %
08.12.2022 06:28 3,9 C 3,3 C 1,1 C 96 % 1009,0 hPa 0,0 l/m 0 min 0 min 0 W/m 9,7 km/h (2 Bft) 95,74 %
08.12.2022 06:30 3,9 C 3,3 C 1,1 C 96 % 1009,0 hPa 0,0 l/m 0 min 0 min 0 W/m 6,4 km/h (2 Bft) 93,62 %
08.12.2022 06:32 3,9 C 3,3 C 1,1 C 96 % 1009,0 hPa 0,0 l/m 0 min 0 min 0 W/m 6,4 km/h (2 Bft) 95,74 %
08.12.2022 06:34 3,9 C 3,3 C 1,1 C 96 % 1009,0 hPa 0,0 l/m 0 min 0 min 0 W/m 6,4 km/h (2 Bft) 95,74 %
08.12.2022 06:36 3,9 C 3,3 C 1,1 C 96 % 1009,0 hPa 0,0 l/m 0 min 2 min 0 W/m 6,4 km/h (2 Bft) 97,83 %
08.12.2022 06:38 3,9 C 3,3 C 1,1 C 96 % 1009,0 hPa 0,0 l/m 0 min 2 min 0 W/m 3,2 km/h (1 Bft) 95,74 %
08.12.2022 06:40 3,9 C 3,3 C 1,1 C 96 % 1009,0 hPa 0,0 l/m 0 min 2 min 0 W/m 9,7 km/h (2 Bft) 97,87 %
08.12.2022 06:42 3,9 C 3,3 C 1,1 C 96 % 1009,0 hPa 0,0 l/m 0 min 2 min 0 W/m 12,9 km/h (3 Bft) 97,87 %
08.12.2022 06:44 3,9 C 3,3 C 1,1 C 96 % 1008,9 hPa 0,0 l/m 0 min 2 min 0 W/m 9,7 km/h (2 Bft) 95,74 %
08.12.2022 06:46 3,9 C 3,3 C 1,1 C 96 % 1008,8 hPa 0,0 l/m 0 min 2 min 0 W/m 12,9 km/h (3 Bft) 97,87 %
08.12.2022 06:48 3,9 C 3,3 C 1,1 C 96 % 1008,8 hPa 0,0 l/m 0 min 0 min 0 W/m 16,1 km/h (3 Bft) 95,74 %
08.12.2022 06:50 3,9 C 3,3 C 1,1 C 96 % 1008,8 hPa 0,0 l/m 0 min 0 min 0 W/m 16,1 km/h (3 Bft) 95,65 %
08.12.2022 06:52 3,9 C 3,3 C 1,1 C 96 % 1008,8 hPa 0,0 l/m 0 min 0 min 0 W/m 12,9 km/h (3 Bft) 97,87 %
08.12.2022 06:54 3,8 C 3,3 C 1,1 C 96 % 1008,9 hPa 0,2 l/m 0 min 0 min 0 W/m 16,1 km/h (3 Bft) 95,74 %
08.12.2022 06:56 3,9 C 3,3 C 1,1 C 96 % 1008,8 hPa 0,0 l/m 0 min 0 min 0 W/m 6,4 km/h (2 Bft) 95,74 %
08.12.2022 06:58 3,8 C 3,3 C 1,1 C 96 % 1008,7 hPa 0,0 l/m 0 min 2 min 0 W/m 9,7 km/h (2 Bft) 100,00 %
08.12.2022 07:00 3,8 C 3,3 C 1,1 C 96 % 1008,9 hPa 0,0 l/m 0 min 2 min 0 W/m 12,9 km/h (3 Bft) 100,00 %
08.12.2022 07:02 3,8 C 3,3 C 1,1 C 96 % 1008,8 hPa 0,0 l/m 0 min 2 min 0 W/m 19,3 km/h (3 Bft) 100,00 %
08.12.2022 07:04 3,8 C 3,3 C 1,1 C 96 % 1008,8 hPa 0,0 l/m 0 min 2 min 0 W/m 6,4 km/h (2 Bft) 100,00 %
08.12.2022 07:06 3,8 C 3,3 C 1,1 C 96 % 1008,8 hPa 0,0 l/m 0 min 2 min 0 W/m 9,7 km/h (2 Bft) 97,87 %
08.12.2022 07:08 3,8 C 3,3 C 1,1 C 96 % 1008,8 hPa 0,0 l/m 0 min 2 min 0 W/m 6,4 km/h (2 Bft) 100,00 %
08.12.2022 07:10 3,8 C 3,3 C 1,1 C 96 % 1008,8 hPa 0,0 l/m 0 min 2 min 0 W/m 12,9 km/h (3 Bft) 100,00 %
08.12.2022 07:12 3,8 C 3,3 C 1,1 C 96 % 1008,8 hPa 0,0 l/m 0 min 2 min 0 W/m 12,9 km/h (3 Bft) 97,87 %
08.12.2022 07:14 3,8 C 3,3 C 1,1 C 96 % 1008,7 hPa 0,0 l/m 0 min 2 min 0 W/m 6,4 km/h (2 Bft) 97,87 %
08.12.2022 07:16 3,8 C 3,3 C 1,1 C 96 % 1008,7 hPa 0,0 l/m 0 min 2 min 0 W/m 0,0 km/h (0 Bft) 97,87 %
08.12.2022 07:18 3,8 C 3,3 C 1,1 C 96 % 1008,7 hPa 0,0 l/m 0 min 2 min 0 W/m 3,2 km/h (1 Bft) 93,62 %
08.12.2022 07:20 3,8 C 3,3 C 1,1 C 96 % 1008,7 hPa 0,0 l/m 0 min 2 min 0 W/m 0,0 km/h (0 Bft) 97,83 %
08.12.2022 07:25 3,8 C 3,3 C 1,1 C 96 % 1008,7 hPa 0,0 l/m 0 min 5 min 0 W/m 0,0 km/h (0 Bft) 98,36 %
08.12.2022 07:28 3,7 C 3,3 C 1,1 C 96 % 1008,7 hPa 0,0 l/m 0 min 3 min 0 W/m 0,0 km/h (0 Bft) 97,18 %
08.12.2022 07:30 3,7 C 3,3 C 1,1 C 96 % 1008,7 hPa 0,0 l/m 0 min 2 min 0 W/m 6,4 km/h (2 Bft) 97,83 %
08.12.2022 07:32 3,7 C 3,3 C 1,1 C 96 % 1008,7 hPa 0,0 l/m 0 min 2 min 0 W/m 6,4 km/h (2 Bft) 97,87 %
08.12.2022 07:34 3,7 C 3,3 C 1,1 C 96 % 1008,7 hPa 0,0 l/m 0 min 2 min 0 W/m 3,2 km/h (1 Bft) 95,74 %
08.12.2022 07:36 3,7 C 3,3 C 1,1 C 96 % 1008,7 hPa 0,0 l/m 0 min 2 min 0 W/m 6,4 km/h (2 Bft) 97,87 %
08.12.2022 07:38 3,7 C 3,3 C 1,1 C 96 % 1008,8 hPa 0,0 l/m 0 min 2 min 0 W/m 3,2 km/h (1 Bft) 97,87 %
08.12.2022 07:40 3,7 C 3,3 C 1,1 C 96 % 1008,7 hPa 0,0 l/m 0 min 2 min 0 W/m 3,2 km/h (1 Bft) 95,74 %
08.12.2022 07:42 3,7 C 3,3 C 1,1 C 96 % 1008,8 hPa 0,2 l/m 0 min 2 min 0 W/m 6,4 km/h (2 Bft) 97,87 %
08.12.2022 07:44 3,7 C 3,3 C 1,1 C 96 % 1008,8 hPa 0,0 l/m 0 min 2 min 0 W/m 9,7 km/h (2 Bft) 95,65 %
08.12.2022 07:46 3,7 C 3,3 C 1,1 C 96 % 1008,7 hPa 0,0 l/m 0 min 2 min 0 W/m 12,9 km/h (3 Bft) 97,87 %
08.12.2022 07:48 3,7 C 3,3 C 1,1 C 96 % 1008,8 hPa 0,0 l/m 0 min 2 min 0 W/m 6,4 km/h (2 Bft) 97,87 %
08.12.2022 07:50 3,7 C 3,3 C 1,1 C 96 % 1008,7 hPa 0,0 l/m 0 min 2 min 0 W/m 16,1 km/h (3 Bft) 95,74 %
08.12.2022 07:52 3,7 C 3,3 C 1,1 C 96 % 1008,7 hPa 0,0 l/m 0 min 2 min 0 W/m 9,7 km/h (2 Bft) 95,74 %
08.12.2022 07:54 3,6 C 3,3 C 0,6 C 96 % 1008,7 hPa 0,0 l/m 0 min 2 min 0 W/m 6,4 km/h (2 Bft) 97,87 %
08.12.2022 07:56 3,6 C 3,3 C 1,1 C 96 % 1008,7 hPa 0,0 l/m 0 min 2 min 0 W/m 12,9 km/h (3 Bft) 97,83 %
08.12.2022 07:58 3,6 C 3,3 C 0,6 C 96 % 1008,7 hPa 0,0 l/m 0 min 2 min 0 W/m 16,1 km/h (3 Bft) 95,74 %
08.12.2022 08:00 3,6 C 3,3 C 0,6 C 96 % 1008,7 hPa 0,0 l/m 0 min 2 min 0 W/m 6,4 km/h (2 Bft) 97,87 %
08.12.2022 08:02 3,6 C 2,8 C 0,6 C 96 % 1008,8 hPa 0,0 l/m 0 min 2 min 0 W/m 6,4 km/h (2 Bft) 95,74 %
08.12.2022 08:04 3,6 C 3,3 C 1,1 C 96 % 1008,7 hPa 0,2 l/m 0 min 2 min 0 W/m 6,4 km/h (2 Bft) 97,87 %
08.12.2022 08:06 3,6 C 2,8 C 0,6 C 96 % 1008,8 hPa 0,0 l/m 0 min 2 min 0 W/m 12,9 km/h (3 Bft) 97,87 %
08.12.2022 08:08 3,6 C 2,8 C 1,1 C 96 % 1008,9 hPa 0,0 l/m 0 min 2 min 0 W/m 12,9 km/h (3 Bft) 97,83 %
08.12.2022 08:10 3,6 C 2,8 C 1,1 C 96 % 1008,9 hPa 0,0 l/m 0 min 2 min 0 W/m 12,9 km/h (3 Bft) 97,87 %
08.12.2022 08:12 3,6 C 2,8 C 1,1 C 96 % 1008,9 hPa 0,0 l/m 0 min 2 min 0 W/m 6,4 km/h (2 Bft) 97,87 %
08.12.2022 08:14 3,6 C 2,8 C 0,6 C 96 % 1008,9 hPa 0,0 l/m 0 min 2 min 0 W/m 22,5 km/h (4 Bft) 97,87 %
08.12.2022 08:16 3,6 C 2,8 C 0,6 C 96 % 1008,9 hPa 0,0 l/m 0 min 2 min 0 W/m 16,1 km/h (3 Bft) 97,87 %
08.12.2022 08:18 3,6 C 2,8 C 0,6 C 96 % 1008,9 hPa 0,0 l/m 0 min 2 min 0 W/m 12,9 km/h (3 Bft) 97,87 %
08.12.2022 08:20 3,6 C 2,8 C 0,6 C 96 % 1008,9 hPa 0,0 l/m 0 min 2 min 0 W/m 12,9 km/h (3 Bft) 95,65 %
08.12.2022 08:22 3,6 C 2,8 C 0,6 C 96 % 1008,9 hPa 0,0 l/m 0 min 2 min 0 W/m 12,9 km/h (3 Bft) 97,87 %
08.12.2022 08:24 3,5 C 2,8 C 0,6 C 96 % 1008,9 hPa 0,0 l/m 0 min 2 min 0 W/m 12,9 km/h (3 Bft) 97,87 %
08.12.2022 08:26 3,5 C 2,8 C 0,6 C 96 % 1009,0 hPa 0,2 l/m 0 min 2 min 0 W/m 12,9 km/h (3 Bft) 100,00 %
08.12.2022 08:28 3,4 C 2,8 C 0,6 C 96 % 1008,9 hPa 0,0 l/m 0 min 2 min 0 W/m 12,9 km/h (3 Bft) 97,87 %
08.12.2022 08:30 3,4 C 2,8 C 0,6 C 96 % 1008,9 hPa 0,0 l/m 0 min 2 min 0 W/m 12,9 km/h (3 Bft) 91,49 %
08.12.2022 08:32 3,4 C 2,8 C 0,6 C 96 % 1008,9 hPa 0,0 l/m 0 min 2 min 0 W/m 12,9 km/h (3 Bft) 100,00 %
08.12.2022 08:34 3,4 C 2,8 C 0,6 C 96 % 1008,9 hPa 0,0 l/m 0 min 2 min 0 W/m 12,9 km/h (3 Bft) 100,00 %
08.12.2022 08:36 3,4 C 2,8 C 0,6 C 96 % 1008,9 hPa 0,0 l/m 0 min 2 min 0 W/m 3,2 km/h (1 Bft) 95,74 %
08.12.2022 08:38 3,4 C 2,8 C 0,6 C 96 % 1008,9 hPa 0,0 l/m 0 min 2 min 0 W/m 6,4 km/h (2 Bft) 100,00 %
08.12.2022 08:40 3,4 C 2,8 C 0,6 C 96 % 1008,9 hPa 0,0 l/m 0 min 2 min 0 W/m 3,2 km/h (1 Bft) 100,00 %
08.12.2022 08:42 3,4 C 2,8 C 0,6 C 96 % 1008,9 hPa 0,0 l/m 0 min 2 min 0 W/m 9,7 km/h (2 Bft) 97,87 %
08.12.2022 08:44 3,4 C 2,8 C 0,6 C 96 % 1008,9 hPa 0,0 l/m 0 min 2 min 0 W/m 12,9 km/h (3 Bft) 100,00 %
08.12.2022 08:46 3,4 C 2,8 C 0,6 C 96 % 1008,9 hPa 0,0 l/m 0 min 2 min 0 W/m 6,4 km/h (2 Bft) 97,83 %
08.12.2022 08:48 3,4 C 2,8 C 0,6 C 96 % 1008,9 hPa 0,2 l/m 0 min 2 min 0 W/m 12,9 km/h (3 Bft) 100,00 %
08.12.2022 08:50 3,3 C 2,8 C 0,6 C 96 % 1008,9 hPa 0,0 l/m 0 min 2 min 0 W/m 6,4 km/h (2 Bft) 100,00 %
08.12.2022 08:52 3,3 C 2,8 C 0,6 C 96 % 1008,8 hPa 0,0 l/m 0 min 2 min 0 W/m 12,9 km/h (3 Bft) 100,00 %
08.12.2022 08:54 3,3 C 2,8 C 0,6 C 96 % 1008,9 hPa 0,0 l/m 0 min 2 min 0 W/m 12,9 km/h (3 Bft) 100,00 %
08.12.2022 08:56 3,3 C 2,8 C 0,6 C 96 % 1008,9 hPa 0,0 l/m 0 min 2 min 2 W/m 9,7 km/h (2 Bft) 97,87 %
08.12.2022 08:58 3,3 C 2,8 C 0,6 C 96 % 1008,9 hPa 0,0 l/m 0 min 2 min 3 W/m 12,9 km/h (3 Bft) 100,00 %
08.12.2022 09:00 3,3 C 2,8 C 0,6 C 96 % 1008,9 hPa 0,0 l/m 0 min 2 min 5 W/m 12,9 km/h (3 Bft) 97,87 %
08.12.2022 09:02 3,3 C 2,8 C 0,6 C 96 % 1008,8 hPa 0,0 l/m 0 min 2 min 5 W/m 3,2 km/h (1 Bft) 100,00 %
08.12.2022 09:04 3,3 C 2,8 C 0,6 C 96 % 1008,8 hPa 0,0 l/m 0 min 2 min 5 W/m 0,0 km/h (0 Bft) 100,00 %
08.12.2022 09:06 3,3 C 2,8 C 0,6 C 96 % 1008,8 hPa 0,0 l/m 0 min 2 min 5 W/m 3,2 km/h (1 Bft) 97,87 %
08.12.2022 09:08 3,3 C 2,8 C 0,6 C 96 % 1008,8 hPa 0,2 l/m 0 min 2 min 5 W/m 6,4 km/h (2 Bft) 100,00 %
08.12.2022 09:10 3,3 C 2,8 C 0,6 C 96 % 1008,8 hPa 0,0 l/m 0 min 2 min 5 W/m 12,9 km/h (3 Bft) 97,87 %
08.12.2022 09:12 3,3 C 2,8 C 0,6 C 96 % 1008,8 hPa 0,0 l/m 0 min 2 min 6 W/m 6,4 km/h (2 Bft) 95,65 %
08.12.2022 09:14 3,3 C 2,8 C 0,6 C 96 % 1008,8 hPa 0,0 l/m 0 min 2 min 7 W/m 3,2 km/h (1 Bft) 97,87 %
08.12.2022 09:16 3,3 C 2,8 C 0,6 C 96 % 1008,9 hPa 0,0 l/m 0 min 2 min 7 W/m 6,4 km/h (2 Bft) 97,87 %
08.12.2022 09:18 3,3 C 2,8 C 0,6 C 96 % 1008,9 hPa 0,0 l/m 0 min 2 min 10 W/m 9,7 km/h (2 Bft) 97,87 %
08.12.2022 09:20 3,3 C 2,8 C 0,6 C 96 % 1008,9 hPa 0,0 l/m 0 min 2 min 11 W/m 9,7 km/h (2 Bft) 97,87 %
08.12.2022 09:22 3,3 C 2,8 C 0,6 C 96 % 1008,8 hPa 0,2 l/m 0 min 2 min 12 W/m 6,4 km/h (2 Bft) 97,87 %
08.12.2022 09:24 3,3 C 2,8 C 0,6 C 96 % 1008,8 hPa 0,0 l/m 0 min 2 min 14 W/m 12,9 km/h (3 Bft) 95,65 %
08.12.2022 09:26 3,3 C 2,8 C 0,6 C 96 % 1008,9 hPa 0,0 l/m 0 min 2 min 15 W/m 6,4 km/h (2 Bft) 97,87 %
08.12.2022 09:28 3,3 C 2,8 C 0,6 C 96 % 1008,8 hPa 0,0 l/m 0 min 2 min 15 W/m 3,2 km/h (1 Bft) 97,87 %
08.12.2022 09:30 3,3 C 2,8 C 0,6 C 96 % 1008,8 hPa 0,0 l/m 0 min 2 min 18 W/m 6,4 km/h (2 Bft) 95,74 %
08.12.2022 09:32 3,3 C 2,8 C 0,6 C 97 % 1008,8 hPa 0,0 l/m 0 min 0 min 18 W/m 6,4 km/h (2 Bft) 97,87 %
08.12.2022 09:34 3,3 C 2,8 C 0,6 C 97 % 1008,9 hPa 0,0 l/m 0 min 2 min 18 W/m 6,4 km/h (2 Bft) 93,62 %
08.12.2022 09:36 3,3 C 2,8 C 0,6 C 97 % 1008,8 hPa 0,0 l/m 0 min 2 min 21 W/m 6,4 km/h (2 Bft) 95,65 %
08.12.2022 09:38 3,3 C 2,8 C 0,6 C 97 % 1008,8 hPa 0,0 l/m 0 min 2 min 21 W/m 6,4 km/h (2 Bft) 95,74 %
08.12.2022 09:40 3,3 C 2,8 C 0,6 C 97 % 1008,8 hPa 0,0 l/m 0 min 2 min 19 W/m 6,4 km/h (2 Bft) 95,74 %
08.12.2022 09:42 3,3 C 2,8 C 0,6 C 97 % 1008,8 hPa 0,0 l/m 0 min 2 min 21 W/m 12,9 km/h (3 Bft) 95,74 %
08.12.2022 09:44 3,4 C 2,8 C 0,6 C 97 % 1008,8 hPa 0,0 l/m 0 min 0 min 20 W/m 12,9 km/h (3 Bft) 93,62 %
08.12.2022 09:46 3,3 C 2,8 C 0,6 C 97 % 1008,8 hPa 0,0 l/m 0 min 0 min 20 W/m 6,4 km/h (2 Bft) 93,62 %
08.12.2022 09:48 3,4 C 2,8 C 0,6 C 97 % 1008,8 hPa 0,0 l/m 0 min 0 min 26 W/m 0,0 km/h (0 Bft) 91,30 %
08.12.2022 09:50 3,4 C 2,8 C 1,1 C 97 % 1008,8 hPa 0,0 l/m 0 min 2 min 28 W/m 6,4 km/h (2 Bft) 93,62 %
08.12.2022 09:52 3,4 C 2,8 C 0,6 C 97 % 1008,8 hPa 0,0 l/m 0 min 2 min 27 W/m 12,9 km/h (3 Bft) 93,62 %
08.12.2022 09:54 3,4 C 2,8 C 0,6 C 97 % 1008,8 hPa 0,0 l/m 0 min 0 min 27 W/m 9,7 km/h (2 Bft) 93,62 %
08.12.2022 09:56 3,4 C 2,8 C 0,6 C 97 % 1008,8 hPa 0,0 l/m 0 min 2 min 24 W/m 12,9 km/h (3 Bft) 93,62 %
08.12.2022 09:58 3,4 C 2,8 C 0,6 C 97 % 1008,8 hPa 0,0 l/m 0 min 2 min 26 W/m 6,4 km/h (2 Bft) 89,36 %
08.12.2022 10:00 3,4 C 2,8 C 0,6 C 97 % 1008,8 hPa 0,0 l/m 0 min 2 min 26 W/m 12,9 km/h (3 Bft) 93,62 %
08.12.2022 10:02 3,3 C 2,8 C 0,6 C 97 % 1008,9 hPa 0,0 l/m 0 min 2 min 22 W/m 12,9 km/h (3 Bft) 91,30 %
08.12.2022 10:04 3,3 C 2,8 C 0,6 C 97 % 1008,8 hPa 0,0 l/m 0 min 2 min 33 W/m 3,2 km/h (1 Bft) 93,62 %
08.12.2022 10:06 3,4 C 2,8 C 0,6 C 97 % 1008,8 hPa 0,0 l/m 0 min 0 min 36 W/m 9,7 km/h (2 Bft) 93,62 %
08.12.2022 10:08 3,4 C 2,8 C 0,6 C 97 % 1008,8 hPa 0,0 l/m 0 min 2 min 34 W/m 12,9 km/h (3 Bft) 95,74 %
08.12.2022 10:10 3,3 C 2,8 C 0,6 C 97 % 1008,8 hPa 0,0 l/m 0 min 2 min 34 W/m 6,4 km/h (2 Bft) 91,49 %
08.12.2022 10:12 3,3 C 2,8 C 0,6 C 97 % 1008,8 hPa 0,0 l/m 0 min 2 min 35 W/m 12,9 km/h (3 Bft) 93,62 %
08.12.2022 10:14 3,4 C 2,8 C 0,6 C 97 % 1008,9 hPa 0,0 l/m 0 min 2 min 38 W/m 12,9 km/h (3 Bft) 93,48 %
08.12.2022 10:16 3,4 C 2,8 C 0,6 C 97 % 1008,8 hPa 0,0 l/m 0 min 2 min 30 W/m 16,1 km/h (3 Bft) 91,49 %
08.12.2022 10:18 3,4 C 2,8 C 0,6 C 97 % 1008,8 hPa 0,0 l/m 0 min 0 min 33 W/m 16,1 km/h (3 Bft) 97,87 %
08.12.2022 10:20 3,4 C 2,8 C 0,6 C 97 % 1008,8 hPa 0,0 l/m 0 min 2 min 41 W/m 16,1 km/h (3 Bft) 100,00 %
08.12.2022 10:22 3,4 C 2,8 C 0,6 C 97 % 1008,8 hPa 0,0 l/m 0 min 2 min 32 W/m 12,9 km/h (3 Bft) 97,87 %
08.12.2022 10:24 3,4 C 2,8 C 1,1 C 97 % 1008,9 hPa 0,0 l/m 0 min 2 min 27 W/m 6,4 km/h (2 Bft) 97,87 %
08.12.2022 10:26 3,4 C 3,3 C 1,1 C 97 % 1008,8 hPa 0,0 l/m 0 min 2 min 30 W/m 9,7 km/h (2 Bft) 100,00 %
08.12.2022 10:28 3,4 C 2,8 C 1,1 C 97 % 1008,8 hPa 0,0 l/m 0 min 2 min 36 W/m 6,4 km/h (2 Bft) 97,87 %
08.12.2022 10:30 3,4 C 3,3 C 0,6 C 97 % 1008,9 hPa 0,0 l/m 0 min 2 min 38 W/m 6,4 km/h (2 Bft) 100,00 %
08.12.2022 10:32 3,4 C 3,3 C 1,1 C 97 % 1008,8 hPa 0,0 l/m 0 min 2 min 42 W/m 12,9 km/h (3 Bft) 100,00 %
08.12.2022 10:34 3,4 C 3,3 C 1,1 C 97 % 1008,8 hPa 0,0 l/m 0 min 2 min 40 W/m 12,9 km/h (3 Bft) 97,87 %
08.12.2022 10:36 3,4 C 3,3 C 0,6 C 97 % 1008,8 hPa 0,0 l/m 0 min 2 min 40 W/m 16,1 km/h (3 Bft) 95,74 %
08.12.2022 10:38 3,4 C 3,3 C 0,6 C 97 % 1008,9 hPa 0,0 l/m 0 min 0 min 36 W/m 12,9 km/h (3 Bft) 100,00 %
08.12.2022 10:40 3,4 C 3,3 C 1,1 C 97 % 1008,9 hPa 0,0 l/m 0 min 0 min 38 W/m 6,4 km/h (2 Bft) 97,87 %
08.12.2022 10:42 3,4 C 3,3 C 1,1 C 97 % 1008,9 hPa 0,0 l/m 0 min 0 min 39 W/m 6,4 km/h (2 Bft) 97,87 %
08.12.2022 10:44 3,4 C 3,3 C 1,1 C 97 % 1008,8 hPa 0,0 l/m 0 min 0 min 43 W/m 16,1 km/h (3 Bft) 100,00 %
08.12.2022 10:46 3,4 C 3,3 C 1,1 C 97 % 1008,8 hPa 0,0 l/m 0 min 2 min 42 W/m 12,9 km/h (3 Bft) 95,74 %
08.12.2022 10:48 3,4 C 3,3 C 1,1 C 97 % 1008,8 hPa 0,0 l/m 0 min 0 min 38 W/m 6,4 km/h (2 Bft) 100,00 %
08.12.2022 10:50 3,4 C 3,3 C 1,1 C 97 % 1008,8 hPa 0,0 l/m 0 min 0 min 44 W/m 6,4 km/h (2 Bft) 97,83 %
08.12.2022 10:52 3,4 C 3,3 C 1,1 C 97 % 1008,8 hPa 0,0 l/m 0 min 0 min 40 W/m 16,1 km/h (3 Bft) 97,87 %
08.12.2022 10:54 3,4 C 3,3 C 1,1 C 97 % 1008,8 hPa 0,0 l/m 0 min 0 min 40 W/m 6,4 km/h (2 Bft) 100,00 %
08.12.2022 10:56 3,5 C 3,3 C 1,1 C 97 % 1008,8 hPa 0,0 l/m 0 min 0 min 42 W/m 9,7 km/h (2 Bft) 100,00 %
08.12.2022 10:58 3,5 C 3,3 C 1,1 C 97 % 1008,8 hPa 0,0 l/m 0 min 0 min 43 W/m 12,9 km/h (3 Bft) 100,00 %
08.12.2022 11:00 3,5 C 3,3 C 1,1 C 97 % 1008,8 hPa 0,0 l/m 0 min 0 min 48 W/m 6,4 km/h (2 Bft) 100,00 %
08.12.2022 11:02 3,5 C 3,3 C 1,1 C 97 % 1008,7 hPa 0,0 l/m 0 min 0 min 48 W/m 16,1 km/h (3 Bft) 100,00 %
08.12.2022 11:04 3,5 C 3,3 C 1,1 C 97 % 1008,7 hPa 0,0 l/m 0 min 0 min 52 W/m 9,7 km/h (2 Bft) 100,00 %
08.12.2022 11:06 3,5 C 3,3 C 1,1 C 97 % 1008,7 hPa 0,0 l/m 0 min 0 min 53 W/m 6,4 km/h (2 Bft) 100,00 %
08.12.2022 11:08 3,5 C 3,3 C 1,1 C 97 % 1008,7 hPa 0,0 l/m 0 min 0 min 49 W/m 12,9 km/h (3 Bft) 100,00 %
08.12.2022 11:10 3,5 C 3,3 C 1,1 C 97 % 1008,7 hPa 0,0 l/m 0 min 2 min 48 W/m 16,1 km/h (3 Bft) 100,00 %
08.12.2022 11:12 3,6 C 3,3 C 1,1 C 97 % 1008,7 hPa 0,0 l/m 0 min 0 min 43 W/m 6,4 km/h (2 Bft) 97,87 %
08.12.2022 11:14 3,5 C 3,3 C 1,1 C 97 % 1008,7 hPa 0,0 l/m 0 min 0 min 41 W/m 6,4 km/h (2 Bft) 100,00 %
08.12.2022 11:16 3,6 C 3,3 C 1,1 C 97 % 1008,7 hPa 0,0 l/m 0 min 0 min 35 W/m 3,2 km/h (1 Bft) 100,00 %
08.12.2022 11:18 3,6 C 3,3 C 1,1 C 97 % 1008,7 hPa 0,0 l/m 0 min 2 min 35 W/m 12,9 km/h (3 Bft) 95,74 %
08.12.2022 11:20 3,6 C 3,3 C 1,1 C 97 % 1008,7 hPa 0,0 l/m 0 min 0 min 38 W/m 3,2 km/h (1 Bft) 100,00 %
08.12.2022 11:22 3,6 C 3,3 C 1,1 C 97 % 1008,7 hPa 0,0 l/m 0 min 2 min 41 W/m 6,4 km/h (2 Bft) 93,62 %
08.12.2022 11:24 3,6 C 3,3 C 1,1 C 97 % 1008,6 hPa 0,0 l/m 0 min 2 min 41 W/m 12,9 km/h (3 Bft) 100,00 %
08.12.2022 11:26 3,6 C 3,3 C 1,1 C 97 % 1008,6 hPa 0,0 l/m 0 min 2 min 44 W/m 6,4 km/h (2 Bft) 100,00 %
08.12.2022 11:28 3,6 C 3,3 C 1,1 C 97 % 1008,6 hPa 0,0 l/m 0 min 2 min 48 W/m 12,9 km/h (3 Bft) 100,00 %
08.12.2022 11:30 3,6 C 3,3 C 1,1 C 97 % 1008,6 hPa 0,0 l/m 0 min 2 min 52 W/m 6,4 km/h (2 Bft) 97,87 %
08.12.2022 11:32 3,6 C 3,3 C 1,1 C 97 % 1008,6 hPa 0,0 l/m 0 min 2 min 59 W/m 12,9 km/h (3 Bft) 97,87 %
08.12.2022 11:34 3,6 C 3,3 C 1,1 C 97 % 1008,6 hPa 0,0 l/m 0 min 0 min 66 W/m 12,9 km/h (3 Bft) 100,00 %
08.12.2022 11:36 3,6 C 3,3 C 1,1 C 97 % 1008,6 hPa 0,0 l/m 0 min 0 min 75 W/m 6,4 km/h (2 Bft) 95,74 %
08.12.2022 11:38 3,6 C 3,3 C 1,1 C 97 % 1008,5 hPa 0,0 l/m 0 min 0 min 90 W/m 9,7 km/h (2 Bft) 95,74 %
08.12.2022 11:40 3,6 C 3,9 C 1,1 C 97 % 1008,6 hPa 0,0 l/m 0 min 0 min 85 W/m 9,7 km/h (2 Bft) 97,87 %
08.12.2022 11:42 3,7 C 3,9 C 1,1 C 97 % 1008,5 hPa 0,0 l/m 0 min 0 min 96 W/m 12,9 km/h (3 Bft) 97,83 %
08.12.2022 11:44 3,7 C 3,9 C 1,1 C 97 % 1008,4 hPa 0,0 l/m 0 min 0 min 98 W/m 3,2 km/h (1 Bft) 97,87 %
08.12.2022 11:46 3,7 C 3,9 C 1,1 C 97 % 1008,4 hPa 0,0 l/m 0 min 0 min 104 W/m 9,7 km/h (2 Bft) 97,87 %
08.12.2022 11:48 3,8 C 3,9 C 1,1 C 97 % 1008,4 hPa 0,0 l/m 0 min 0 min 113 W/m 9,7 km/h (2 Bft) 97,87 %
08.12.2022 11:50 3,8 C 3,9 C 1,1 C 97 % 1008,4 hPa 0,0 l/m 0 min 0 min 103 W/m 12,9 km/h (3 Bft) 95,74 %
08.12.2022 11:52 3,8 C 3,9 C 1,1 C 97 % 1008,4 hPa 0,0 l/m 0 min 0 min 91 W/m 12,9 km/h (3 Bft) 95,74 %
08.12.2022 11:54 3,8 C 3,9 C 1,1 C 97 % 1008,4 hPa 0,0 l/m 0 min 0 min 72 W/m 12,9 km/h (3 Bft) 100,00 %
08.12.2022 11:56 3,8 C 3,9 C 1,1 C 97 % 1008,4 hPa 0,0 l/m 0 min 0 min 60 W/m 6,4 km/h (2 Bft) 97,87 %
08.12.2022 11:58 3,8 C 3,9 C 1,1 C 96 % 1008,3 hPa 0,0 l/m 0 min 0 min 71 W/m 12,9 km/h (3 Bft) 97,87 %
08.12.2022 12:00 3,8 C 3,9 C 1,1 C 96 % 1008,3 hPa 0,0 l/m 0 min 0 min 80 W/m 12,9 km/h (3 Bft) 93,62 %
08.12.2022 12:02 3,8 C 3,9 C 1,1 C 96 % 1008,3 hPa 0,0 l/m 0 min 0 min 101 W/m 12,9 km/h (3 Bft) 97,87 %
08.12.2022 12:04 3,8 C 3,9 C 1,1 C 97 % 1008,3 hPa 0,0 l/m 0 min 0 min 110 W/m 9,7 km/h (2 Bft) 97,87 %
08.12.2022 12:08 3,9 C 3,9 C 1,7 C 97 % 1008,2 hPa 0,0 l/m 0 min 0 min 92 W/m 16,1 km/h (3 Bft) 97,85 %
08.12.2022 12:10 3,9 C 3,9 C 1,7 C 97 % 1008,2 hPa 0,0 l/m 0 min 0 min 99 W/m 12,9 km/h (3 Bft) 97,87 %
08.12.2022 12:12 3,9 C 3,9 C 1,1 C 97 % 1008,2 hPa 0,0 l/m 0 min 0 min 80 W/m 16,1 km/h (3 Bft) 97,87 %
08.12.2022 12:14 3,9 C 3,9 C 1,1 C 97 % 1008,1 hPa 0,0 l/m 0 min 0 min 78 W/m 6,4 km/h (2 Bft) 97,87 %
08.12.2022 12:16 3,9 C 3,9 C 1,7 C 96 % 1008,1 hPa 0,0 l/m 0 min 0 min 67 W/m 9,7 km/h (2 Bft) 97,87 %
08.12.2022 12:18 3,9 C 3,9 C 1,7 C 96 % 1008,2 hPa 0,0 l/m 0 min 0 min 63 W/m 9,7 km/h (2 Bft) 93,62 %
08.12.2022 12:20 3,9 C 3,9 C 1,1 C 96 % 1008,2 hPa 0,0 l/m 0 min 0 min 70 W/m 6,4 km/h (2 Bft) 93,48 %
08.12.2022 12:22 3,9 C 3,9 C 1,1 C 96 % 1008,1 hPa 0,0 l/m 0 min 0 min 51 W/m 6,4 km/h (2 Bft) 97,87 %
08.12.2022 12:24 3,9 C 3,9 C 1,1 C 96 % 1008,1 hPa 0,0 l/m 0 min 0 min 41 W/m 9,7 km/h (2 Bft) 91,49 %
08.12.2022 12:26 3,9 C 3,9 C 1,1 C 96 % 1008,1 hPa 0,0 l/m 0 min 0 min 40 W/m 6,4 km/h (2 Bft) 95,74 %
08.12.2022 12:28 3,9 C 3,9 C 1,1 C 96 % 1008,1 hPa 0,0 l/m 0 min 0 min 43 W/m 9,7 km/h (2 Bft) 95,74 %
08.12.2022 12:30 3,9 C 3,9 C 1,1 C 96 % 1008,1 hPa 0,0 l/m 0 min 0 min 48 W/m 12,9 km/h (3 Bft) 95,65 %
08.12.2022 12:32 3,9 C 3,9 C 1,1 C 96 % 1008,1 hPa 0,0 l/m 0 min 0 min 48 W/m 16,1 km/h (3 Bft) 93,62 %
08.12.2022 12:34 3,9 C 3,9 C 1,1 C 96 % 1008,0 hPa 0,0 l/m 0 min 0 min 49 W/m 12,9 km/h (3 Bft) 95,74 %
08.12.2022 12:36 3,9 C 3,9 C 1,1 C 96 % 1008,0 hPa 0,0 l/m 0 min 2 min 45 W/m 12,9 km/h (3 Bft) 95,74 %
08.12.2022 12:38 3,9 C 3,9 C 1,1 C 96 % 1007,9 hPa 0,0 l/m 0 min 0 min 51 W/m 12,9 km/h (3 Bft) 93,62 %
08.12.2022 12:40 3,9 C 3,9 C 1,1 C 96 % 1008,0 hPa 0,0 l/m 0 min 0 min 59 W/m 16,1 km/h (3 Bft) 91,49 %
08.12.2022 12:42 3,9 C 3,9 C 1,1 C 96 % 1008,0 hPa 0,0 l/m 0 min 0 min 57 W/m 16,1 km/h (3 Bft) 95,74 %
08.12.2022 12:44 3,8 C 3,9 C 1,1 C 96 % 1008,0 hPa 0,0 l/m 0 min 0 min 60 W/m 16,1 km/h (3 Bft) 95,65 %
08.12.2022 12:46 3,8 C 3,9 C 1,1 C 96 % 1008,0 hPa 0,0 l/m 0 min 2 min 61 W/m 12,9 km/h (3 Bft) 95,74 %
08.12.2022 12:48 3,8 C 3,9 C 1,1 C 96 % 1007,9 hPa 0,0 l/m 0 min 0 min 64 W/m 6,4 km/h (2 Bft) 95,74 %
08.12.2022 12:50 3,9 C 3,9 C 1,1 C 96 % 1007,9 hPa 0,0 l/m 0 min 2 min 64 W/m 9,7 km/h (2 Bft) 95,74 %
08.12.2022 12:52 3,9 C 3,9 C 1,1 C 96 % 1007,9 hPa 0,0 l/m 0 min 0 min 69 W/m 6,4 km/h (2 Bft) 97,87 %
08.12.2022 12:54 3,9 C 3,9 C 1,1 C 96 % 1007,9 hPa 0,0 l/m 0 min 0 min 72 W/m 6,4 km/h (2 Bft) 97,87 %
08.12.2022 12:56 3,9 C 3,9 C 1,1 C 96 % 1007,9 hPa 0,0 l/m 0 min 0 min 79 W/m 12,9 km/h (3 Bft) 95,65 %
08.12.2022 12:58 3,9 C 3,9 C 1,1 C 96 % 1007,9 hPa 0,0 l/m 0 min 2 min 85 W/m 6,4 km/h (2 Bft) 93,62 %
08.12.2022 13:00 3,9 C 3,9 C 1,1 C 96 % 1007,8 hPa 0,0 l/m 0 min 0 min 91 W/m 6,4 km/h (2 Bft) 95,74 %
08.12.2022 13:02 4,0 C 3,9 C 1,7 C 96 % 1007,9 hPa 0,0 l/m 0 min 0 min 94 W/m 12,9 km/h (3 Bft) 55,32 %
08.12.2022 13:04 4,0 C 3,9 C 1,7 C 96 % 1007,9 hPa 0,0 l/m 0 min 2 min 99 W/m 3,2 km/h (1 Bft) 97,87 %
08.12.2022 13:06 4,1 C 3,9 C 1,7 C 96 % 1007,8 hPa 0,0 l/m 0 min 0 min 102 W/m 12,9 km/h (3 Bft) 95,74 %
08.12.2022 13:08 4,1 C 3,9 C 1,7 C 96 % 1007,8 hPa 0,0 l/m 0 min 0 min 101 W/m 16,1 km/h (3 Bft) 97,87 %
08.12.2022 13:10 4,0 C 3,9 C 1,1 C 96 % 1007,8 hPa 0,0 l/m 0 min 0 min 98 W/m 16,1 km/h (3 Bft) 97,83 %
08.12.2022 13:12 4,0 C 3,9 C 1,1 C 95 % 1007,8 hPa 0,0 l/m 0 min 2 min 95 W/m 25,7 km/h (4 Bft) 93,62 %
08.12.2022 13:14 4,0 C 3,9 C 1,1 C 95 % 1007,8 hPa 0,0 l/m 0 min 0 min 86 W/m 12,9 km/h (3 Bft) 97,87 %
08.12.2022 13:16 4,1 C 3,9 C 1,1 C 95 % 1007,8 hPa 0,0 l/m 0 min 0 min 71 W/m 16,1 km/h (3 Bft) 100,00 %
08.12.2022 13:18 4,1 C 3,9 C 1,1 C 95 % 1007,8 hPa 0,0 l/m 0 min 0 min 58 W/m 6,4 km/h (2 Bft) 100,00 %
08.12.2022 13:20 4,1 C 3,9 C 1,1 C 95 % 1007,8 hPa 0,0 l/m 0 min 0 min 38 W/m 12,9 km/h (3 Bft) 100,00 %
08.12.2022 13:22 4,1 C 3,9 C 1,1 C 95 % 1007,8 hPa 0,0 l/m 0 min 0 min 26 W/m 6,4 km/h (2 Bft) 97,83 %
08.12.2022 13:24 4,1 C 3,9 C 1,1 C 95 % 1007,8 hPa 0,0 l/m 0 min 0 min 20 W/m 12,9 km/h (3 Bft) 97,87 %
08.12.2022 13:26 4,1 C 3,9 C 1,1 C 95 % 1007,8 hPa 0,0 l/m 0 min 0 min 25 W/m 6,4 km/h (2 Bft) 95,74 %
08.12.2022 13:28 4,0 C 3,9 C 1,1 C 95 % 1007,8 hPa 0,0 l/m 0 min 2 min 35 W/m 6,4 km/h (2 Bft) 95,74 %
08.12.2022 13:30 4,1 C 3,9 C 1,1 C 95 % 1007,8 hPa 0,0 l/m 0 min 0 min 52 W/m 3,2 km/h (1 Bft) 97,87 %
08.12.2022 13:32 4,1 C 3,9 C 1,1 C 95 % 1007,8 hPa 0,0 l/m 0 min 0 min 52 W/m 16,1 km/h (3 Bft) 95,74 %
08.12.2022 13:34 4,0 C 3,9 C 1,1 C 95 % 1007,8 hPa 0,0 l/m 0 min 0 min 62 W/m 12,9 km/h (3 Bft) 95,65 %
08.12.2022 13:36 3,9 C 3,9 C 1,1 C 94 % 1007,8 hPa 0,0 l/m 0 min 0 min 64 W/m 6,4 km/h (2 Bft) 95,74 %
08.12.2022 13:38 3,9 C 3,9 C 1,1 C 94 % 1007,8 hPa 0,0 l/m 0 min 0 min 71 W/m 6,4 km/h (2 Bft) 97,87 %
08.12.2022 13:40 4,0 C 3,9 C 1,1 C 94 % 1007,8 hPa 0,0 l/m 0 min 0 min 70 W/m 3,2 km/h (1 Bft) 97,87 %
08.12.2022 13:42 4,0 C 3,9 C 1,1 C 94 % 1007,8 hPa 0,0 l/m 0 min 0 min 69 W/m 9,7 km/h (2 Bft) 93,62 %
08.12.2022 13:44 4,0 C 3,9 C 1,1 C 94 % 1007,8 hPa 0,0 l/m 0 min 0 min 65 W/m 12,9 km/h (3 Bft) 97,87 %
08.12.2022 13:46 4,0 C 3,9 C 1,1 C 94 % 1007,7 hPa 0,0 l/m 0 min 0 min 62 W/m 9,7 km/h (2 Bft) 95,74 %
08.12.2022 13:48 4,0 C 3,9 C 1,1 C 94 % 1007,7 hPa 0,0 l/m 0 min 0 min 59 W/m 6,4 km/h (2 Bft) 95,65 %
08.12.2022 13:50 4,0 C 3,9 C 1,1 C 94 % 1007,7 hPa 0,0 l/m 0 min 0 min 55 W/m 12,9 km/h (3 Bft) 97,87 %
08.12.2022 13:52 4,0 C 3,9 C 1,1 C 94 % 1007,7 hPa 0,0 l/m 0 min 0 min 47 W/m 9,7 km/h (2 Bft) 93,62 %
08.12.2022 13:54 4,0 C 3,9 C 1,1 C 94 % 1007,7 hPa 0,0 l/m 0 min 0 min 41 W/m 3,2 km/h (1 Bft) 97,87 %
08.12.2022 13:56 4,0 C 3,9 C 1,1 C 94 % 1007,7 hPa 0,0 l/m 0 min 0 min 35 W/m 6,4 km/h (2 Bft) 97,87 %
08.12.2022 13:58 4,1 C 3,9 C 1,1 C 94 % 1007,7 hPa 0,0 l/m 0 min 0 min 35 W/m 3,2 km/h (1 Bft) 100,00 %
08.12.2022 14:00 4,1 C 3,9 C 1,1 C 94 % 1007,7 hPa 0,0 l/m 0 min 0 min 33 W/m 6,4 km/h (2 Bft) 97,83 %
08.12.2022 14:02 4,1 C 3,9 C 1,1 C 94 % 1007,7 hPa 0,0 l/m 0 min 0 min 35 W/m 3,2 km/h (1 Bft) 44,44 %
08.12.2022 14:04 4,1 C 3,9 C 1,1 C 94 % 1007,7 hPa 0,0 l/m 0 min 0 min 34 W/m 12,9 km/h (3 Bft) 95,74 %
08.12.2022 14:06 4,1 C 3,9 C 1,1 C 94 % 1007,7 hPa 0,0 l/m 0 min 0 min 39 W/m 3,2 km/h (1 Bft) 100,00 %
08.12.2022 14:08 4,1 C 3,9 C 1,1 C 94 % 1007,7 hPa 0,0 l/m 0 min 0 min 44 W/m 6,4 km/h (2 Bft) 100,00 %
08.12.2022 14:10 4,1 C 3,9 C 1,1 C 94 % 1007,7 hPa 0,0 l/m 0 min 0 min 52 W/m 6,4 km/h (2 Bft) 100,00 %
08.12.2022 14:12 4,1 C 3,9 C 1,1 C 94 % 1007,6 hPa 0,0 l/m 0 min 0 min 54 W/m 6,4 km/h (2 Bft) 100,00 %
08.12.2022 14:14 4,1 C 3,9 C 1,1 C 94 % 1007,6 hPa 0,0 l/m 0 min 0 min 56 W/m 6,4 km/h (2 Bft) 100,00 %
08.12.2022 14:18 4,1 C 3,9 C 1,1 C 94 % 1007,6 hPa 0,0 l/m 0 min 0 min 56 W/m 6,4 km/h (2 Bft) 98,94 %
08.12.2022 14:20 4,1 C 3,9 C 1,1 C 94 % 1007,6 hPa 0,0 l/m 0 min 0 min 56 W/m 3,2 km/h (1 Bft) 100,00 %
08.12.2022 14:22 4,1 C 3,9 C 1,1 C 93 % 1007,6 hPa 0,0 l/m 0 min 0 min 52 W/m 9,7 km/h (2 Bft) 97,87 %
08.12.2022 14:24 4,2 C 3,9 C 1,1 C 93 % 1007,6 hPa 0,0 l/m 0 min 0 min 47 W/m 12,9 km/h (3 Bft) 100,00 %
08.12.2022 14:26 4,1 C 3,9 C 1,1 C 93 % 1007,5 hPa 0,0 l/m 0 min 0 min 48 W/m 6,4 km/h (2 Bft) 100,00 %
08.12.2022 14:28 4,2 C 3,9 C 1,1 C 93 % 1007,6 hPa 0,0 l/m 0 min 0 min 39 W/m 6,4 km/h (2 Bft) 97,87 %
08.12.2022 14:30 4,2 C 3,9 C 1,1 C 93 % 1007,6 hPa 0,0 l/m 0 min 0 min 28 W/m 6,4 km/h (2 Bft) 97,87 %
08.12.2022 14:32 4,2 C 3,9 C 1,1 C 93 % 1007,6 hPa 0,0 l/m 0 min 0 min 29 W/m 16,1 km/h (3 Bft) 97,87 %
08.12.2022 14:34 4,1 C 3,9 C 1,1 C 93 % 1007,6 hPa 0,0 l/m 0 min 0 min 26 W/m 16,1 km/h (3 Bft) 100,00 %
08.12.2022 14:36 4,1 C 3,9 C 1,1 C 93 % 1007,6 hPa 0,0 l/m 0 min 0 min 20 W/m 6,4 km/h (2 Bft) 97,87 %
08.12.2022 14:38 4,1 C 3,9 C 1,1 C 93 % 1007,6 hPa 0,0 l/m 0 min 0 min 24 W/m 6,4 km/h (2 Bft) 95,65 %
08.12.2022 14:40 4,1 C 3,9 C 1,1 C 93 % 1007,5 hPa 0,0 l/m 0 min 0 min 26 W/m 3,2 km/h (1 Bft) 97,87 %
08.12.2022 14:42 4,2 C 4,4 C 1,1 C 93 % 1007,5 hPa 0,0 l/m 0 min 0 min 28 W/m 16,1 km/h (3 Bft) 97,87 %
08.12.2022 14:44 4,2 C 4,4 C 1,1 C 93 % 1007,5 hPa 0,0 l/m 0 min 0 min 27 W/m 9,7 km/h (2 Bft) 97,87 %
08.12.2022 14:46 4,3 C 4,4 C 1,1 C 93 % 1007,4 hPa 0,0 l/m 0 min 0 min 28 W/m 6,4 km/h (2 Bft) 93,62 %
08.12.2022 14:48 4,3 C 4,4 C 1,1 C 93 % 1007,4 hPa 0,0 l/m 0 min 0 min 26 W/m 9,7 km/h (2 Bft) 97,87 %
08.12.2022 14:50 4,3 C 4,4 C 1,1 C 92 % 1007,4 hPa 0,0 l/m 0 min 0 min 25 W/m 12,9 km/h (3 Bft) 97,83 %
08.12.2022 14:52 4,3 C 4,4 C 1,1 C 92 % 1007,4 hPa 0,0 l/m 0 min 0 min 24 W/m 3,2 km/h (1 Bft) 95,74 %
08.12.2022 14:54 4,3 C 4,4 C 1,1 C 92 % 1007,4 hPa 0,0 l/m 0 min 0 min 27 W/m 9,7 km/h (2 Bft) 100,00 %
08.12.2022 14:56 4,4 C 4,4 C 1,1 C 92 % 1007,3 hPa 0,0 l/m 0 min 0 min 32 W/m 0,0 km/h (0 Bft) 97,73 %
08.12.2022 14:58 4,4 C 4,4 C 1,1 C 92 % 1007,4 hPa 0,0 l/m 0 min 0 min 36 W/m 0,0 km/h (0 Bft) 98,04 %
08.12.2022 15:00 4,4 C 4,4 C 1,1 C 92 % 1007,3 hPa 0,0 l/m 0 min 0 min 38 W/m 0,0 km/h (0 Bft) 97,73 %
08.12.2022 15:02 4,4 C 4,4 C 1,1 C 91 % 1007,3 hPa 0,0 l/m 0 min 0 min 41 W/m 6,4 km/h (2 Bft) 97,96 %
08.12.2022 15:04 4,4 C 4,4 C 1,1 C 91 % 1007,3 hPa 0,0 l/m 0 min 0 min 40 W/m 3,2 km/h (1 Bft) 97,87 %
08.12.2022 15:06 4,4 C 4,4 C 1,1 C 91 % 1007,4 hPa 0,0 l/m 0 min 0 min 36 W/m 6,4 km/h (2 Bft) 97,87 %
08.12.2022 15:08 4,5 C 4,4 C 1,1 C 91 % 1007,3 hPa 0,0 l/m 0 min 0 min 35 W/m 6,4 km/h (2 Bft) 97,56 %
08.12.2022 15:10 4,4 C 4,4 C 1,1 C 91 % 1007,3 hPa 0,0 l/m 0 min 0 min 35 W/m 6,4 km/h (2 Bft) 95,74 %
08.12.2022 15:12 4,4 C 4,4 C 1,1 C 91 % 1007,3 hPa 0,0 l/m 0 min 0 min 36 W/m 12,9 km/h (3 Bft) 95,65 %
08.12.2022 15:14 4,4 C 3,9 C 1,1 C 91 % 1007,2 hPa 0,0 l/m 0 min 0 min 37 W/m 16,1 km/h (3 Bft) 96,30 %
08.12.2022 15:16 4,4 C 4,4 C 1,1 C 91 % 1007,2 hPa 0,0 l/m 0 min 0 min 37 W/m 6,4 km/h (2 Bft) 97,83 %
08.12.2022 15:18 4,4 C 4,4 C 1,7 C 91 % 1007,3 hPa 0,0 l/m 0 min 0 min 38 W/m 12,9 km/h (3 Bft) 95,65 %
08.12.2022 15:20 4,5 C 4,4 C 1,7 C 90 % 1007,3 hPa 0,0 l/m 0 min 0 min 39 W/m 6,4 km/h (2 Bft) 97,67 %
08.12.2022 15:22 4,5 C 4,4 C 1,7 C 90 % 1007,4 hPa 0,0 l/m 0 min 0 min 40 W/m 6,4 km/h (2 Bft) 95,65 %
08.12.2022 15:24 4,5 C 4,4 C 1,7 C 90 % 1007,4 hPa 0,0 l/m 0 min 0 min 39 W/m 9,7 km/h (2 Bft) 96,30 %
08.12.2022 15:26 4,5 C 4,4 C 1,7 C 90 % 1007,3 hPa 0,0 l/m 0 min 0 min 34 W/m 12,9 km/h (3 Bft) 97,50 %
08.12.2022 15:28 4,4 C 4,4 C 1,7 C 90 % 1007,3 hPa 0,0 l/m 0 min 0 min 29 W/m 12,9 km/h (3 Bft) 94,23 %
08.12.2022 15:30 4,4 C 4,4 C 1,7 C 90 % 1007,4 hPa 0,0 l/m 0 min 0 min 28 W/m 9,7 km/h (2 Bft) 97,37 %
08.12.2022 15:32 4,4 C 3,9 C 1,7 C 90 % 1007,4 hPa 0,0 l/m 0 min 0 min 26 W/m 19,3 km/h (3 Bft) 96,30 %
08.12.2022 15:34 4,4 C 4,4 C 1,7 C 90 % 1007,4 hPa 0,0 l/m 0 min 0 min 24 W/m 6,4 km/h (2 Bft) 94,34 %
08.12.2022 15:36 4,4 C 3,9 C 1,7 C 90 % 1007,5 hPa 0,0 l/m 0 min 0 min 22 W/m 3,2 km/h (1 Bft) 97,56 %
08.12.2022 15:38 4,4 C 3,9 C 1,7 C 90 % 1007,4 hPa 0,0 l/m 0 min 0 min 21 W/m 6,4 km/h (2 Bft) 98,04 %
08.12.2022 15:40 4,5 C 3,9 C 1,7 C 90 % 1007,4 hPa 0,0 l/m 0 min 0 min 17 W/m 6,4 km/h (2 Bft) 97,44 %
08.12.2022 15:42 4,4 C 3,9 C 1,7 C 90 % 1007,3 hPa 0,0 l/m 0 min 0 min 13 W/m 12,9 km/h (3 Bft) 100,00 %
08.12.2022 15:44 4,4 C 3,9 C 1,7 C 89 % 1007,3 hPa 0,0 l/m 0 min 0 min 12 W/m 12,9 km/h (3 Bft) 97,92 %
08.12.2022 15:46 4,4 C 3,9 C 1,7 C 90 % 1007,3 hPa 0,0 l/m 0 min 0 min 12 W/m 9,7 km/h (2 Bft) 98,00 %
08.12.2022 15:48 4,3 C 3,9 C 1,7 C 90 % 1007,3 hPa 0,0 l/m 0 min 0 min 12 W/m 6,4 km/h (2 Bft) 97,37 %
08.12.2022 15:50 4,3 C 3,9 C 1,7 C 89 % 1007,3 hPa 0,0 l/m 0 min 0 min 12 W/m 9,7 km/h (2 Bft) 98,08 %
08.12.2022 15:52 4,3 C 3,9 C 1,7 C 89 % 1007,3 hPa 0,0 l/m 0 min 0 min 14 W/m 9,7 km/h (2 Bft) 95,92 %
08.12.2022 15:54 4,3 C 3,9 C 1,7 C 89 % 1007,3 hPa 0,0 l/m 0 min 0 min 16 W/m 16,1 km/h (3 Bft) 97,56 %
08.12.2022 15:56 4,2 C 3,9 C 1,1 C 89 % 1007,3 hPa 0,0 l/m 0 min 0 min 17 W/m 16,1 km/h (3 Bft) 98,21 %
08.12.2022 15:58 4,2 C 3,9 C 1,1 C 89 % 1007,3 hPa 0,0 l/m 0 min 0 min 17 W/m 6,4 km/h (2 Bft) 97,78 %
08.12.2022 16:00 4,2 C 3,9 C 1,1 C 89 % 1007,3 hPa 0,0 l/m 0 min 0 min 16 W/m 12,9 km/h (3 Bft) 97,73 %
08.12.2022 16:02 4,2 C 3,9 C 1,1 C 89 % 1007,3 hPa 0,0 l/m 0 min 0 min 14 W/m 22,5 km/h (4 Bft) 97,83 %
08.12.2022 16:04 4,2 C 3,9 C 1,1 C 89 % 1007,3 hPa 0,0 l/m 0 min 0 min 12 W/m 22,5 km/h (4 Bft) 93,18 %
08.12.2022 16:06 4,1 C 3,9 C 1,1 C 89 % 1007,3 hPa 0,0 l/m 0 min 0 min 10 W/m 6,4 km/h (2 Bft) 98,00 %
08.12.2022 16:08 4,1 C 3,9 C 1,1 C 89 % 1007,3 hPa 0,0 l/m 0 min 0 min 8 W/m 12,9 km/h (3 Bft) 94,12 %
08.12.2022 16:10 4,1 C 3,9 C 1,1 C 89 % 1007,3 hPa 0,0 l/m 0 min 0 min 6 W/m 6,4 km/h (2 Bft) 97,44 %
08.12.2022 16:12 4,1 C 3,9 C 1,1 C 89 % 1007,3 hPa 0,0 l/m 0 min 0 min 5 W/m 6,4 km/h (2 Bft) 98,00 %
08.12.2022 16:14 4,1 C 3,9 C 1,1 C 89 % 1007,3 hPa 0,0 l/m 0 min 0 min 5 W/m 16,1 km/h (3 Bft) 97,44 %
08.12.2022 16:16 4,1 C 3,9 C 1,1 C 89 % 1007,3 hPa 0,0 l/m 0 min 0 min 2 W/m 6,4 km/h (2 Bft) 98,28 %
08.12.2022 16:18 4,2 C 3,9 C 1,1 C 89 % 1007,3 hPa 0,0 l/m 0 min 0 min 0 W/m 6,4 km/h (2 Bft) 97,73 %
08.12.2022 16:20 4,2 C 3,9 C 1,1 C 89 % 1007,3 hPa 0,0 l/m 0 min 0 min 0 W/m 6,4 km/h (2 Bft) 97,78 %
08.12.2022 16:22 4,2 C 3,9 C 1,1 C 89 % 1007,4 hPa 0,0 l/m 0 min 0 min 0 W/m 12,9 km/h (3 Bft) 97,78 %
08.12.2022 16:26 4,1 C 3,9 C 1,1 C 89 % 1007,4 hPa 0,0 l/m 0 min 0 min 0 W/m 12,9 km/h (3 Bft) 97,09 %
08.12.2022 16:28 4,1 C 3,3 C 1,1 C 89 % 1007,3 hPa 0,0 l/m 0 min 0 min 0 W/m 12,9 km/h (3 Bft) 97,78 %
08.12.2022 16:30 4,1 C 3,3 C 1,1 C 89 % 1007,3 hPa 0,0 l/m 0 min 0 min 0 W/m 6,4 km/h (2 Bft) 95,56 %
08.12.2022 16:32 4,1 C 3,9 C 1,1 C 89 % 1007,3 hPa 0,0 l/m 0 min 0 min 0 W/m 9,7 km/h (2 Bft) 95,45 %
08.12.2022 16:34 4,1 C 3,3 C 1,1 C 89 % 1007,4 hPa 0,0 l/m 0 min 0 min 0 W/m 9,7 km/h (2 Bft) 97,83 %
08.12.2022 16:36 4,1 C 3,3 C 1,1 C 89 % 1007,3 hPa 0,0 l/m 0 min 0 min 0 W/m 12,9 km/h (3 Bft) 98,15 %
08.12.2022 16:38 4,1 C 3,9 C 1,1 C 89 % 1007,4 hPa 0,0 l/m 0 min 0 min 0 W/m 6,4 km/h (2 Bft) 97,14 %
08.12.2022 16:40 4,1 C 3,9 C 1,1 C 89 % 1007,3 hPa 0,0 l/m 0 min 0 min 0 W/m 9,7 km/h (2 Bft) 100,00 %
08.12.2022 16:42 4,1 C 3,3 C 1,1 C 89 % 1007,4 hPa 0,0 l/m 0 min 0 min 0 W/m 3,2 km/h (1 Bft) 97,67 %
08.12.2022 16:44 4,1 C 3,3 C 1,1 C 89 % 1007,4 hPa 0,0 l/m 0 min 0 min 0 W/m 6,4 km/h (2 Bft) 100,00 %
08.12.2022 16:46 4,1 C 3,3 C 1,1 C 89 % 1007,5 hPa 0,0 l/m 0 min 0 min 0 W/m 9,7 km/h (2 Bft) 97,67 %
08.12.2022 16:48 4,1 C 3,3 C 1,1 C 90 % 1007,4 hPa 0,0 l/m 0 min 0 min 0 W/m 9,7 km/h (2 Bft) 97,87 %
08.12.2022 16:50 4,1 C 3,3 C 1,1 C 90 % 1007,4 hPa 0,0 l/m 0 min 0 min 0 W/m 9,7 km/h (2 Bft) 95,56 %
08.12.2022 16:52 4,1 C 3,9 C 1,1 C 90 % 1007,4 hPa 0,0 l/m 0 min 0 min 0 W/m 6,4 km/h (2 Bft) 95,74 %
08.12.2022 16:54 4,1 C 3,9 C 1,1 C 90 % 1007,3 hPa 0,0 l/m 0 min 0 min 0 W/m 16,1 km/h (3 Bft) 98,15 %
08.12.2022 16:56 4,1 C 3,3 C 1,1 C 90 % 1007,3 hPa 0,0 l/m 0 min 0 min 0 W/m 6,4 km/h (2 Bft) 97,67 %
08.12.2022 16:58 4,1 C 3,3 C 1,1 C 90 % 1007,3 hPa 0,0 l/m 0 min 0 min 0 W/m 6,4 km/h (2 Bft) 97,87 %
08.12.2022 17:00 4,1 C 3,3 C 1,1 C 90 % 1007,3 hPa 0,0 l/m 0 min 0 min 0 W/m 6,4 km/h (2 Bft) 97,37 %
08.12.2022 17:02 4,1 C 3,3 C 1,1 C 90 % 1007,4 hPa 0,0 l/m 0 min 0 min 0 W/m 12,9 km/h (3 Bft) 96,83 %
08.12.2022 17:04 4,1 C 3,3 C 1,1 C 90 % 1007,3 hPa 0,0 l/m 0 min 0 min 0 W/m 6,4 km/h (2 Bft) 94,59 %
08.12.2022 17:06 4,1 C 3,3 C 1,1 C 90 % 1007,4 hPa 0,0 l/m 0 min 0 min 0 W/m 6,4 km/h (2 Bft) 95,74 %
08.12.2022 17:08 4,0 C 3,3 C 1,1 C 90 % 1007,4 hPa 0,0 l/m 0 min 0 min 0 W/m 9,7 km/h (2 Bft) 98,15 %
08.12.2022 17:10 4,1 C 3,3 C 1,1 C 90 % 1007,4 hPa 0,0 l/m 0 min 0 min 0 W/m 12,9 km/h (3 Bft) 95,56 %
08.12.2022 17:12 4,0 C 3,3 C 1,1 C 90 % 1007,4 hPa 0,0 l/m 0 min 0 min 0 W/m 12,9 km/h (3 Bft) 93,18 %
08.12.2022 17:14 4,0 C 3,3 C 1,1 C 90 % 1007,5 hPa 0,0 l/m 0 min 0 min 0 W/m 6,4 km/h (2 Bft) 93,48 %
08.12.2022 17:16 3,9 C 3,3 C 1,1 C 90 % 1007,5 hPa 0,0 l/m 0 min 0 min 0 W/m 12,9 km/h (3 Bft) 93,48 %
08.12.2022 17:18 3,9 C 3,3 C 1,1 C 90 % 1007,4 hPa 0,0 l/m 0 min 0 min 0 W/m 3,2 km/h (1 Bft) 95,35 %
08.12.2022 17:20 3,9 C 3,3 C 1,1 C 90 % 1007,4 hPa 0,0 l/m 0 min 0 min 0 W/m 6,4 km/h (2 Bft) 95,74 %
08.12.2022 17:22 3,9 C 3,3 C 1,1 C 90 % 1007,4 hPa 0,0 l/m 0 min 0 min 0 W/m 6,4 km/h (2 Bft) 94,00 %
08.12.2022 17:24 3,9 C 3,3 C 1,1 C 90 % 1007,4 hPa 0,0 l/m 0 min 0 min 0 W/m 3,2 km/h (1 Bft) 95,65 %
08.12.2022 17:26 3,9 C 3,3 C 1,1 C 90 % 1007,4 hPa 0,0 l/m 0 min 0 min 0 W/m 6,4 km/h (2 Bft) 94,12 %
08.12.2022 17:28 3,9 C 3,3 C 1,1 C 90 % 1007,3 hPa 0,0 l/m 0 min 0 min 0 W/m 3,2 km/h (1 Bft) 97,56 %
08.12.2022 17:30 3,9 C 3,3 C 1,1 C 90 % 1007,3 hPa 0,0 l/m 0 min 0 min 0 W/m 6,4 km/h (2 Bft) 95,74 %
08.12.2022 17:32 3,9 C 3,3 C 1,1 C 90 % 1007,3 hPa 0,0 l/m 0 min 0 min 0 W/m 12,9 km/h (3 Bft) 98,08 %
08.12.2022 17:34 3,9 C 3,3 C 1,1 C 90 % 1007,3 hPa 0,0 l/m 0 min 0 min 0 W/m 3,2 km/h (1 Bft) 97,37 %
08.12.2022 17:36 3,9 C 3,3 C 1,1 C 90 % 1007,3 hPa 0,0 l/m 0 min 0 min 0 W/m 6,4 km/h (2 Bft) 97,87 %
08.12.2022 17:38 3,9 C 3,3 C 1,1 C 90 % 1007,3 hPa 0,0 l/m 0 min 0 min 0 W/m 6,4 km/h (2 Bft) 94,23 %
08.12.2022 17:40 3,9 C 3,3 C 1,1 C 90 % 1007,3 hPa 0,0 l/m 0 min 0 min 0 W/m 6,4 km/h (2 Bft) 97,92 %
08.12.2022 17:42 3,9 C 3,3 C 1,1 C 90 % 1007,3 hPa 0,0 l/m 0 min 0 min 0 W/m 9,7 km/h (2 Bft) 98,11 %
08.12.2022 17:44 3,9 C 3,3 C 1,1 C 91 % 1007,3 hPa 0,0 l/m 0 min 0 min 0 W/m 12,9 km/h (3 Bft) 100,00 %
08.12.2022 17:46 3,9 C 3,3 C 1,1 C 91 % 1007,3 hPa 0,0 l/m 0 min 0 min 0 W/m 9,7 km/h (2 Bft) 100,00 %
08.12.2022 17:48 3,9 C 3,3 C 1,1 C 91 % 1007,3 hPa 0,0 l/m 0 min 0 min 0 W/m 12,9 km/h (3 Bft) 100,00 %
08.12.2022 17:50 3,9 C 3,3 C 1,1 C 91 % 1007,3 hPa 0,0 l/m 0 min 0 min 0 W/m 12,9 km/h (3 Bft) 100,00 %
08.12.2022 17:52 3,9 C 3,3 C 1,1 C 91 % 1007,3 hPa 0,0 l/m 0 min 0 min 0 W/m 6,4 km/h (2 Bft) 98,00 %
08.12.2022 17:54 3,9 C 3,3 C 1,1 C 91 % 1007,3 hPa 0,0 l/m 0 min 0 min 0 W/m 6,4 km/h (2 Bft) 100,00 %
08.12.2022 17:56 3,9 C 3,3 C 1,1 C 91 % 1007,3 hPa 0,0 l/m 0 min 0 min 0 W/m 3,2 km/h (1 Bft) 100,00 %
08.12.2022 17:58 3,9 C 3,3 C 1,1 C 91 % 1007,4 hPa 0,0 l/m 0 min 0 min 0 W/m 6,4 km/h (2 Bft) 100,00 %
08.12.2022 18:00 3,9 C 3,3 C 1,1 C 91 % 1007,3 hPa 0,0 l/m 0 min 0 min 0 W/m 3,2 km/h (1 Bft) 100,00 %
08.12.2022 18:02 3,9 C 3,3 C 1,1 C 91 % 1007,3 hPa 0,0 l/m 0 min 0 min 0 W/m 3,2 km/h (1 Bft) 97,30 %
08.12.2022 18:04 3,9 C 3,3 C 1,1 C 91 % 1007,3 hPa 0,0 l/m 0 min 0 min 0 W/m 6,4 km/h (2 Bft) 100,00 %
08.12.2022 18:08 3,9 C 3,3 C 1,1 C 91 % 1007,3 hPa 0,0 l/m 0 min 0 min 0 W/m 12,9 km/h (3 Bft) 100,00 %
08.12.2022 18:10 3,9 C 3,3 C 1,1 C 91 % 1007,4 hPa 0,0 l/m 0 min 0 min 0 W/m 6,4 km/h (2 Bft) 97,30 %
08.12.2022 18:12 3,9 C 3,3 C 1,1 C 91 % 1007,4 hPa 0,0 l/m 0 min 0 min 0 W/m 6,4 km/h (2 Bft) 98,11 %
08.12.2022 18:14 3,9 C 3,3 C 1,1 C 91 % 1007,3 hPa 0,0 l/m 0 min 0 min 0 W/m 6,4 km/h (2 Bft) 97,92 %
08.12.2022 18:16 3,9 C 3,3 C 1,1 C 91 % 1007,3 hPa 0,0 l/m 0 min 0 min 0 W/m 12,9 km/h (3 Bft) 97,83 %
08.12.2022 18:18 3,9 C 3,3 C 1,1 C 91 % 1007,4 hPa 0,0 l/m 0 min 0 min 0 W/m 3,2 km/h (1 Bft) 100,00 %
08.12.2022 18:20 3,9 C 3,3 C 1,1 C 91 % 1007,3 hPa 0,0 l/m 0 min 0 min 0 W/m 3,2 km/h (1 Bft) 100,00 %
08.12.2022 18:22 3,9 C 3,3 C 1,1 C 91 % 1007,4 hPa 0,0 l/m 0 min 0 min 0 W/m 3,2 km/h (1 Bft) 100,00 %
08.12.2022 18:24 3,9 C 3,3 C 1,1 C 91 % 1007,4 hPa 0,0 l/m 0 min 0 min 0 W/m 3,2 km/h (1 Bft) 100,00 %
08.12.2022 18:26 3,9 C 3,3 C 1,1 C 91 % 1007,5 hPa 0,0 l/m 0 min 0 min 0 W/m 3,2 km/h (1 Bft) 100,00 %
08.12.2022 18:28 3,9 C 3,3 C 1,1 C 91 % 1007,5 hPa 0,0 l/m 0 min 0 min 0 W/m 3,2 km/h (1 Bft) 100,00 %
08.12.2022 18:30 3,9 C 3,3 C 1,1 C 91 % 1007,5 hPa 0,0 l/m 0 min 0 min 0 W/m 3,2 km/h (1 Bft) 100,00 %
08.12.2022 18:32 3,9 C 3,3 C 1,1 C 91 % 1007,5 hPa 0,0 l/m 0 min 0 min 0 W/m 3,2 km/h (1 Bft) 100,00 %
08.12.2022 18:34 3,9 C 3,3 C 1,1 C 91 % 1007,4 hPa 0,0 l/m 0 min 0 min 0 W/m 0,0 km/h (0 Bft) 98,21 %
08.12.2022 18:36 3,9 C 3,3 C 1,1 C 91 % 1007,4 hPa 0,0 l/m 0 min 0 min 0 W/m 3,2 km/h (1 Bft) 100,00 %
08.12.2022 18:38 3,9 C 3,3 C 1,1 C 91 % 1007,5 hPa 0,0 l/m 0 min 0 min 0 W/m 3,2 km/h (1 Bft) 100,00 %
08.12.2022 18:40 3,9 C 3,3 C 1,1 C 91 % 1007,4 hPa 0,0 l/m 0 min 0 min 0 W/m 3,2 km/h (1 Bft) 100,00 %
08.12.2022 18:42 3,9 C 3,3 C 1,1 C 91 % 1007,3 hPa 0,0 l/m 0 min 0 min 0 W/m 3,2 km/h (1 Bft) 97,96 %
08.12.2022 18:44 3,9 C 3,3 C 1,1 C 91 % 1007,4 hPa 0,0 l/m 0 min 0 min 0 W/m 3,2 km/h (1 Bft) 100,00 %
08.12.2022 18:46 3,9 C 3,3 C 1,1 C 91 % 1007,4 hPa 0,0 l/m 0 min 0 min 0 W/m 3,2 km/h (1 Bft) 97,73 %
08.12.2022 18:48 3,9 C 3,3 C 1,1 C 91 % 1007,4 hPa 0,0 l/m 0 min 0 min 0 W/m 6,4 km/h (2 Bft) 97,83 %
08.12.2022 18:50 3,9 C 3,3 C 1,1 C 91 % 1007,5 hPa 0,0 l/m 0 min 0 min 0 W/m 3,2 km/h (1 Bft) 98,18 %
08.12.2022 18:52 3,9 C 3,3 C 1,1 C 91 % 1007,4 hPa 0,0 l/m 0 min 0 min 0 W/m 3,2 km/h (1 Bft) 95,74 %
08.12.2022 18:54 3,9 C 3,3 C 1,1 C 91 % 1007,4 hPa 0,0 l/m 0 min 0 min 0 W/m 6,4 km/h (2 Bft) 97,37 %
08.12.2022 18:56 3,9 C 3,3 C 1,1 C 91 % 1007,4 hPa 0,0 l/m 0 min 0 min 0 W/m 12,9 km/h (3 Bft) 97,83 %
08.12.2022 18:58 3,9 C 3,3 C 1,1 C 91 % 1007,3 hPa 0,0 l/m 0 min 0 min 0 W/m 3,2 km/h (1 Bft) 96,00 %
08.12.2022 19:00 3,9 C 3,3 C 1,1 C 91 % 1007,3 hPa 0,0 l/m 0 min 0 min 0 W/m 6,4 km/h (2 Bft) 94,23 %
08.12.2022 19:02 3,9 C 3,3 C 1,1 C 91 % 1007,4 hPa 0,0 l/m 0 min 0 min 0 W/m 6,4 km/h (2 Bft) 95,92 %
08.12.2022 19:04 3,9 C 3,3 C 1,1 C 91 % 1007,3 hPa 0,0 l/m 0 min 0 min 0 W/m 12,9 km/h (3 Bft) 95,12 %
08.12.2022 19:06 3,9 C 3,3 C 1,1 C 91 % 1007,4 hPa 0,0 l/m 0 min 0 min 0 W/m 9,7 km/h (2 Bft) 96,43 %
08.12.2022 19:08 3,9 C 3,3 C 1,1 C 91 % 1007,4 hPa 0,0 l/m 0 min 0 min 0 W/m 3,2 km/h (1 Bft) 94,12 %
08.12.2022 19:10 3,9 C 3,3 C 1,1 C 91 % 1007,4 hPa 0,0 l/m 0 min 0 min 0 W/m 6,4 km/h (2 Bft) 96,36 %
08.12.2022 19:12 3,9 C 3,3 C 1,1 C 91 % 1007,5 hPa 0,0 l/m 0 min 0 min 0 W/m 0,0 km/h (0 Bft) 93,48 %
08.12.2022 19:14 3,9 C 3,3 C 1,1 C 91 % 1007,5 hPa 0,0 l/m 0 min 0 min 0 W/m 0,0 km/h (0 Bft) 97,67 %
08.12.2022 19:16 3,8 C 3,3 C 1,1 C 91 % 1007,4 hPa 0,0 l/m 0 min 0 min 0 W/m 0,0 km/h (0 Bft) 98,04 %
08.12.2022 19:18 3,9 C 3,3 C 1,1 C 91 % 1007,5 hPa 0,0 l/m 0 min 0 min 0 W/m 3,2 km/h (1 Bft) 93,88 %
08.12.2022 19:20 3,9 C 3,3 C 1,1 C 91 % 1007,4 hPa 0,0 l/m 0 min 0 min 0 W/m 3,2 km/h (1 Bft) 97,50 %
08.12.2022 19:22 3,9 C 3,3 C 1,1 C 91 % 1007,4 hPa 0,0 l/m 0 min 0 min 0 W/m 3,2 km/h (1 Bft) 95,92 %
08.12.2022 19:24 3,9 C 3,3 C 1,1 C 91 % 1007,4 hPa 0,0 l/m 0 min 0 min 0 W/m 3,2 km/h (1 Bft) 97,56 %
08.12.2022 19:26 3,9 C 3,3 C 1,1 C 91 % 1007,4 hPa 0,0 l/m 0 min 0 min 0 W/m 3,2 km/h (1 Bft) 92,86 %
08.12.2022 19:28 3,8 C 3,3 C 1,1 C 91 % 1007,3 hPa 0,0 l/m 0 min 0 min 0 W/m 3,2 km/h (1 Bft) 97,83 %
08.12.2022 19:30 3,8 C 3,3 C 1,1 C 91 % 1007,4 hPa 0,0 l/m 0 min 0 min 0 W/m 3,2 km/h (1 Bft) 95,35 %
08.12.2022 19:32 3,8 C 3,3 C 1,1 C 91 % 1007,5 hPa 0,0 l/m 0 min 0 min 0 W/m 3,2 km/h (1 Bft) 95,65 %
08.12.2022 19:34 3,8 C 3,3 C 1,1 C 91 % 1007,4 hPa 0,0 l/m 0 min 0 min 0 W/m 3,2 km/h (1 Bft) 100,00 %
08.12.2022 19:36 3,8 C 3,3 C 1,1 C 91 % 1007,4 hPa 0,0 l/m 0 min 0 min 0 W/m 6,4 km/h (2 Bft) 93,62 %
08.12.2022 19:38 3,8 C 3,3 C 1,1 C 91 % 1007,4 hPa 0,0 l/m 0 min 0 min 0 W/m 6,4 km/h (2 Bft) 95,35 %
08.12.2022 19:40 3,8 C 3,3 C 1,1 C 91 % 1007,4 hPa 0,0 l/m 0 min 0 min 0 W/m 6,4 km/h (2 Bft) 95,74 %
08.12.2022 19:42 3,8 C 3,3 C 1,1 C 91 % 1007,4 hPa 0,0 l/m 0 min 0 min 0 W/m 3,2 km/h (1 Bft) 95,35 %
08.12.2022 19:44 3,8 C 3,3 C 1,1 C 91 % 1007,4 hPa 0,0 l/m 0 min 0 min 0 W/m 9,7 km/h (2 Bft) 94,83 %
08.12.2022 19:46 3,8 C 3,3 C 1,1 C 91 % 1007,5 hPa 0,0 l/m 0 min 0 min 0 W/m 6,4 km/h (2 Bft) 95,45 %
08.12.2022 19:48 3,8 C 3,3 C 1,1 C 91 % 1007,5 hPa 0,0 l/m 0 min 0 min 0 W/m 9,7 km/h (2 Bft) 95,56 %
08.12.2022 19:50 3,8 C 3,3 C 0,6 C 91 % 1007,5 hPa 0,0 l/m 0 min 0 min 0 W/m 6,4 km/h (2 Bft) 95,56 %
08.12.2022 19:52 3,7 C 2,8 C 0,6 C 91 % 1007,4 hPa 0,0 l/m 0 min 0 min 0 W/m 6,4 km/h (2 Bft) 97,73 %
08.12.2022 19:54 3,7 C 2,8 C 0,6 C 91 % 1007,5 hPa 0,0 l/m 0 min 0 min 0 W/m 6,4 km/h (2 Bft) 92,98 %
08.12.2022 19:56 3,6 C 2,8 C 0,6 C 91 % 1007,5 hPa 0,0 l/m 0 min 0 min 0 W/m 9,7 km/h (2 Bft) 97,62 %
08.12.2022 19:58 3,6 C 2,8 C 0,6 C 91 % 1007,5 hPa 0,0 l/m 0 min 0 min 0 W/m 6,4 km/h (2 Bft) 95,74 %
08.12.2022 20:00 3,5 C 2,8 C 0,6 C 91 % 1007,4 hPa 0,0 l/m 0 min 0 min 0 W/m 3,2 km/h (1 Bft) 97,22 %
08.12.2022 20:02 3,4 C 2,2 C 0,6 C 91 % 1007,5 hPa 0,0 l/m 0 min 0 min 0 W/m 3,2 km/h (1 Bft) 98,11 %
08.12.2022 20:04 3,3 C 2,2 C 0,0 C 91 % 1007,5 hPa 0,0 l/m 0 min 0 min 0 W/m 9,7 km/h (2 Bft) 97,92 %
08.12.2022 20:06 3,3 C 2,2 C 0,0 C 91 % 1007,5 hPa 0,0 l/m 0 min 0 min 0 W/m 6,4 km/h (2 Bft) 97,87 %
08.12.2022 20:08 3,3 C 2,2 C 0,0 C 91 % 1007,5 hPa 0,0 l/m 0 min 0 min 0 W/m 3,2 km/h (1 Bft) 97,96 %
08.12.2022 20:10 3,2 C 2,2 C 0,0 C 91 % 1007,5 hPa 0,0 l/m 0 min 0 min 0 W/m 3,2 km/h (1 Bft) 96,08 %
08.12.2022 20:12 3,2 C 2,2 C 0,0 C 91 % 1007,5 hPa 0,0 l/m 0 min 0 min 0 W/m 3,2 km/h (1 Bft) 97,30 %
08.12.2022 20:14 3,1 C 2,2 C 0,0 C 91 % 1007,5 hPa 0,0 l/m 0 min 0 min 0 W/m 6,4 km/h (2 Bft) 95,74 %
08.12.2022 20:16 3,1 C 2,2 C 0,0 C 91 % 1007,5 hPa 0,0 l/m 0 min 0 min 0 W/m 6,4 km/h (2 Bft) 98,08 %
08.12.2022 20:18 3,0 C 2,2 C 0,0 C 91 % 1007,5 hPa 0,0 l/m 0 min 0 min 0 W/m 12,9 km/h (3 Bft) 100,00 %
08.12.2022 20:20 3,0 C 2,2 C 0,0 C 91 % 1007,6 hPa 0,0 l/m 0 min 0 min 0 W/m 6,4 km/h (2 Bft) 100,00 %
08.12.2022 20:22 2,9 C 2,2 C 0,0 C 91 % 1007,6 hPa 0,0 l/m 0 min 0 min 0 W/m 3,2 km/h (1 Bft) 100,00 %
08.12.2022 20:24 2,9 C 2,2 C -0,6 C 91 % 1007,5 hPa 0,0 l/m 0 min 0 min 0 W/m 3,2 km/h (1 Bft) 100,00 %
08.12.2022 20:26 2,8 C 1,7 C -0,6 C 91 % 1007,5 hPa 0,0 l/m 0 min 0 min 0 W/m 3,2 km/h (1 Bft) 100,00 %
08.12.2022 20:28 2,8 C 1,7 C -0,6 C 91 % 1007,5 hPa 0,0 l/m 0 min 0 min 0 W/m 0,0 km/h (0 Bft) 100,00 %
08.12.2022 20:30 2,8 C 1,7 C -0,6 C 91 % 1007,5 hPa 0,0 l/m 0 min 0 min 0 W/m 0,0 km/h (0 Bft) 97,56 %
08.12.2022 20:32 2,7 C 1,7 C -0,6 C 91 % 1007,5 hPa 0,0 l/m 0 min 0 min 0 W/m 3,2 km/h (1 Bft) 97,92 %
08.12.2022 20:34 2,7 C 1,7 C -0,6 C 91 % 1007,5 hPa 0,0 l/m 0 min 0 min 0 W/m 0,0 km/h (0 Bft) 98,11 %
08.12.2022 20:36 2,6 C 1,7 C -0,6 C 91 % 1007,5 hPa 0,0 l/m 0 min 0 min 0 W/m 0,0 km/h (0 Bft) 97,67 %
08.12.2022 20:38 2,6 C 1,1 C -0,6 C 91 % 1007,5 hPa 0,0 l/m 0 min 0 min 0 W/m 0,0 km/h (0 Bft) 97,78 %
08.12.2022 20:40 2,5 C 1,1 C -0,6 C 91 % 1007,5 hPa 0,0 l/m 0 min 0 min 0 W/m 3,2 km/h (1 Bft) 97,73 %
08.12.2022 20:42 2,4 C 1,1 C -0,6 C 91 % 1007,5 hPa 0,0 l/m 0 min 0 min 0 W/m 3,2 km/h (1 Bft) 95,56 %
08.12.2022 20:44 2,4 C 1,1 C -0,6 C 91 % 1007,6 hPa 0,0 l/m 0 min 0 min 0 W/m 3,2 km/h (1 Bft) 98,25 %
08.12.2022 20:46 2,4 C 1,1 C -0,6 C 91 % 1007,5 hPa 0,0 l/m 0 min 0 min 0 W/m 0,0 km/h (0 Bft) 97,30 %
08.12.2022 20:48 2,3 C 1,1 C -1,1 C 91 % 1007,6 hPa 0,0 l/m 0 min 0 min 0 W/m 0,0 km/h (0 Bft) 96,08 %
08.12.2022 20:50 2,3 C 1,1 C -1,1 C 91 % 1007,6 hPa 0,0 l/m 0 min 0 min 0 W/m 3,2 km/h (1 Bft) 85,71 %
08.12.2022 20:52 2,3 C 1,1 C -0,6 C 91 % 1007,5 hPa 0,0 l/m 0 min 0 min 0 W/m 3,2 km/h (1 Bft) 68,00 %
08.12.2022 20:54 2,3 C 1,1 C -0,6 C 92 % 1007,6 hPa 0,0 l/m 0 min 0 min 0 W/m 9,7 km/h (2 Bft) 97,50 %
08.12.2022 20:56 2,3 C 1,1 C -0,6 C 92 % 1007,6 hPa 0,0 l/m 0 min 0 min 0 W/m 3,2 km/h (1 Bft) 97,73 %
08.12.2022 20:58 2,2 C 1,1 C -0,6 C 92 % 1007,6 hPa 0,0 l/m 0 min 0 min 0 W/m 6,4 km/h (2 Bft) 97,78 %
08.12.2022 21:00 2,2 C 1,7 C -0,6 C 92 % 1007,6 hPa 0,0 l/m 0 min 0 min 0 W/m 6,4 km/h (2 Bft) 100,00 %
08.12.2022 21:02 2,2 C 1,7 C -0,6 C 92 % 1007,6 hPa 0,0 l/m 0 min 0 min 0 W/m 3,2 km/h (1 Bft) 100,00 %
08.12.2022 21:04 2,2 C 1,7 C -0,6 C 92 % 1007,5 hPa 0,0 l/m 0 min 0 min 0 W/m 9,7 km/h (2 Bft) 100,00 %
08.12.2022 21:06 2,2 C 1,7 C -0,6 C 92 % 1007,6 hPa 0,0 l/m 0 min 0 min 0 W/m 9,7 km/h (2 Bft) 98,00 %
08.12.2022 21:08 2,2 C 1,7 C -0,6 C 92 % 1007,6 hPa 0,0 l/m 0 min 0 min 0 W/m 6,4 km/h (2 Bft) 100,00 %
08.12.2022 21:10 2,2 C 1,7 C -0,6 C 92 % 1007,6 hPa 0,0 l/m 0 min 0 min 0 W/m 6,4 km/h (2 Bft) 100,00 %
08.12.2022 21:12 2,3 C 1,7 C -0,6 C 92 % 1007,5 hPa 0,0 l/m 0 min 0 min 0 W/m 9,7 km/h (2 Bft) 100,00 %
08.12.2022 21:14 2,3 C 1,7 C 0,0 C 92 % 1007,5 hPa 0,0 l/m 0 min 0 min 0 W/m 6,4 km/h (2 Bft) 100,00 %
08.12.2022 21:16 2,3 C 1,7 C 0,0 C 93 % 1007,5 hPa 0,0 l/m 0 min 0 min 0 W/m 3,2 km/h (1 Bft) 100,00 %
08.12.2022 21:18 2,3 C 2,2 C 0,0 C 93 % 1007,6 hPa 0,0 l/m 0 min 0 min 0 W/m 9,7 km/h (2 Bft) 100,00 %
08.12.2022 21:20 2,3 C 2,2 C 0,0 C 93 % 1007,6 hPa 0,0 l/m 0 min 0 min 0 W/m 9,7 km/h (2 Bft) 100,00 %
08.12.2022 21:22 2,3 C 2,2 C 0,0 C 93 % 1007,6 hPa 0,0 l/m 0 min 0 min 0 W/m 3,2 km/h (1 Bft) 100,00 %
08.12.2022 21:24 2,3 C 2,2 C 0,0 C 93 % 1007,6 hPa 0,0 l/m 0 min 0 min 0 W/m 3,2 km/h (1 Bft) 100,00 %
08.12.2022 21:26 2,4 C 2,2 C 0,0 C 93 % 1007,5 hPa 0,0 l/m 0 min 0 min 0 W/m 3,2 km/h (1 Bft) 100,00 %
08.12.2022 21:28 2,4 C 2,2 C 0,0 C 93 % 1007,6 hPa 0,0 l/m 0 min 0 min 0 W/m 3,2 km/h (1 Bft) 100,00 %
08.12.2022 21:30 2,4 C 2,2 C 0,0 C 93 % 1007,6 hPa 0,0 l/m 0 min 0 min 0 W/m 6,4 km/h (2 Bft) 100,00 %
08.12.2022 21:32 2,4 C 2,2 C 0,0 C 93 % 1007,6 hPa 0,0 l/m 0 min 0 min 0 W/m 3,2 km/h (1 Bft) 100,00 %
08.12.2022 21:34 2,4 C 2,2 C 0,0 C 93 % 1007,5 hPa 0,0 l/m 0 min 0 min 0 W/m 12,9 km/h (3 Bft) 100,00 %
08.12.2022 21:36 2,5 C 2,2 C 0,0 C 93 % 1007,6 hPa 0,0 l/m 0 min 0 min 0 W/m 6,4 km/h (2 Bft) 100,00 %
08.12.2022 21:38 2,5 C 2,2 C 0,0 C 93 % 1007,6 hPa 0,0 l/m 0 min 0 min 0 W/m 3,2 km/h (1 Bft) 100,00 %
08.12.2022 21:40 2,5 C 2,2 C 0,0 C 93 % 1007,6 hPa 0,0 l/m 0 min 0 min 0 W/m 3,2 km/h (1 Bft) 53,49 %
08.12.2022 21:42 2,6 C 2,2 C 0,0 C 93 % 1007,6 hPa 0,0 l/m 0 min 0 min 0 W/m 6,4 km/h (2 Bft) 97,22 %
08.12.2022 21:44 2,6 C 2,2 C 0,0 C 93 % 1007,5 hPa 0,0 l/m 0 min 0 min 0 W/m 12,9 km/h (3 Bft) 100,00 %
08.12.2022 21:46 2,6 C 2,2 C 0,0 C 93 % 1007,5 hPa 0,0 l/m 0 min 0 min 0 W/m 12,9 km/h (3 Bft) 100,00 %
08.12.2022 21:48 2,6 C 2,2 C 0,0 C 93 % 1007,5 hPa 0,0 l/m 0 min 0 min 0 W/m 9,7 km/h (2 Bft) 100,00 %
08.12.2022 21:50 2,6 C 2,2 C 0,0 C 93 % 1007,6 hPa 0,0 l/m 0 min 0 min 0 W/m 6,4 km/h (2 Bft) 97,73 %
08.12.2022 21:52 2,6 C 2,2 C 0,0 C 93 % 1007,6 hPa 0,0 l/m 0 min 0 min 0 W/m 6,4 km/h (2 Bft) 95,56 %
08.12.2022 21:54 2,6 C 2,2 C 0,0 C 93 % 1007,6 hPa 0,0 l/m 0 min 0 min 0 W/m 6,4 km/h (2 Bft) 94,55 %
08.12.2022 21:56 2,7 C 2,2 C 0,0 C 93 % 1007,6 hPa 0,0 l/m 0 min 0 min 0 W/m 6,4 km/h (2 Bft) 100,00 %
08.12.2022 21:58 2,7 C 2,2 C 0,0 C 93 % 1007,6 hPa 0,0 l/m 0 min 0 min 0 W/m 16,1 km/h (3 Bft) 96,08 %
08.12.2022 22:00 2,7 C 2,2 C 0,0 C 93 % 1007,6 hPa 0,0 l/m 0 min 0 min 0 W/m 12,9 km/h (3 Bft) 98,04 %
08.12.2022 22:02 2,7 C 2,2 C 0,0 C 93 % 1007,6 hPa 0,0 l/m 0 min 0 min 0 W/m 12,9 km/h (3 Bft) 96,00 %
08.12.2022 22:04 2,7 C 2,2 C 0,0 C 93 % 1007,6 hPa 0,0 l/m 0 min 0 min 0 W/m 12,9 km/h (3 Bft) 97,44 %
08.12.2022 22:06 2,7 C 2,2 C 0,0 C 93 % 1007,6 hPa 0,0 l/m 0 min 0 min 0 W/m 9,7 km/h (2 Bft) 98,25 %
08.12.2022 22:08 2,7 C 2,2 C 0,0 C 93 % 1007,6 hPa 0,0 l/m 0 min 0 min 0 W/m 9,7 km/h (2 Bft) 90,91 %
08.12.2022 22:10 2,7 C 2,2 C 0,0 C 93 % 1007,6 hPa 0,0 l/m 0 min 0 min 0 W/m 9,7 km/h (2 Bft) 98,21 %
08.12.2022 22:12 2,7 C 2,2 C 0,0 C 93 % 1007,6 hPa 0,0 l/m 0 min 0 min 0 W/m 9,7 km/h (2 Bft) 95,65 %
08.12.2022 22:14 2,8 C 2,2 C 0,0 C 93 % 1007,6 hPa 0,0 l/m 0 min 0 min 0 W/m 6,4 km/h (2 Bft) 95,45 %
08.12.2022 22:16 2,8 C 2,2 C 0,0 C 93 % 1007,6 hPa 0,0 l/m 0 min 0 min 0 W/m 6,4 km/h (2 Bft) 95,65 %
08.12.2022 22:18 2,8 C 2,2 C 0,0 C 93 % 1007,6 hPa 0,0 l/m 0 min 0 min 0 W/m 6,4 km/h (2 Bft) 95,65 %
08.12.2022 22:20 2,8 C 2,2 C 0,0 C 93 % 1007,6 hPa 0,0 l/m 0 min 0 min 0 W/m 12,9 km/h (3 Bft) 96,36 %
08.12.2022 22:22 2,8 C 2,2 C 0,0 C 93 % 1007,6 hPa 0,0 l/m 0 min 0 min 0 W/m 12,9 km/h (3 Bft) 86,96 %
08.12.2022 22:24 2,8 C 2,2 C 0,0 C 93 % 1007,6 hPa 0,0 l/m 0 min 0 min 0 W/m 12,9 km/h (3 Bft) 96,61 %
08.12.2022 22:26 2,8 C 2,2 C 0,0 C 93 % 1007,5 hPa 0,0 l/m 0 min 0 min 0 W/m 6,4 km/h (2 Bft) 92,73 %
08.12.2022 22:28 2,8 C 2,2 C 0,0 C 93 % 1007,6 hPa 0,0 l/m 0 min 0 min 0 W/m 3,2 km/h (1 Bft) 93,48 %
08.12.2022 22:30 2,8 C 2,2 C 0,0 C 93 % 1007,6 hPa 0,0 l/m 0 min 0 min 0 W/m 9,7 km/h (2 Bft) 94,74 %
08.12.2022 22:32 2,8 C 2,2 C 0,0 C 93 % 1007,6 hPa 0,0 l/m 0 min 0 min 0 W/m 3,2 km/h (1 Bft) 94,44 %
08.12.2022 22:34 2,8 C 2,2 C 0,0 C 93 % 1007,6 hPa 0,0 l/m 0 min 0 min 0 W/m 3,2 km/h (1 Bft) 95,56 %
08.12.2022 22:36 2,8 C 2,2 C 0,0 C 93 % 1007,6 hPa 0,0 l/m 0 min 0 min 0 W/m 9,7 km/h (2 Bft) 94,74 %
08.12.2022 22:38 2,8 C 2,2 C 0,0 C 93 % 1007,5 hPa 0,0 l/m 0 min 0 min 0 W/m 3,2 km/h (1 Bft) 96,36 %
08.12.2022 22:40 2,8 C 2,2 C 0,0 C 93 % 1007,5 hPa 0,0 l/m 0 min 0 min 0 W/m 3,2 km/h (1 Bft) 93,48 %
08.12.2022 22:42 2,8 C 2,2 C 0,0 C 93 % 1007,5 hPa 0,0 l/m 0 min 0 min 0 W/m 6,4 km/h (2 Bft) 93,02 %
08.12.2022 22:44 2,8 C 2,2 C 0,0 C 93 % 1007,5 hPa 0,0 l/m 0 min 0 min 0 W/m 9,7 km/h (2 Bft) 96,49 %
08.12.2022 22:46 2,8 C 2,2 C 0,0 C 93 % 1007,5 hPa 0,0 l/m 0 min 0 min 0 W/m 0,0 km/h (0 Bft) 97,78 %
08.12.2022 22:48 2,8 C 2,2 C 0,0 C 93 % 1007,5 hPa 0,0 l/m 0 min 0 min 0 W/m 0,0 km/h (0 Bft) 95,65 %
08.12.2022 22:50 2,8 C 2,2 C 0,0 C 93 % 1007,5 hPa 0,0 l/m 0 min 0 min 0 W/m 0,0 km/h (0 Bft) 100,00 %
08.12.2022 22:52 2,8 C 2,2 C 0,0 C 93 % 1007,5 hPa 0,0 l/m 0 min 0 min 0 W/m 0,0 km/h (0 Bft) 96,08 %
08.12.2022 22:54 2,8 C 2,2 C 0,0 C 93 % 1007,5 hPa 0,0 l/m 0 min 0 min 0 W/m 6,4 km/h (2 Bft) 97,37 %
08.12.2022 22:56 2,8 C 2,2 C 0,0 C 93 % 1007,6 hPa 0,0 l/m 0 min 0 min 0 W/m 6,4 km/h (2 Bft) 95,65 %
08.12.2022 22:58 2,8 C 2,2 C 0,0 C 93 % 1007,6 hPa 0,0 l/m 0 min 0 min 0 W/m 6,4 km/h (2 Bft) 95,83 %
08.12.2022 23:00 2,8 C 2,2 C 0,0 C 93 % 1007,5 hPa 0,0 l/m 0 min 0 min 0 W/m 9,7 km/h (2 Bft) 96,23 %
08.12.2022 23:02 2,7 C 2,2 C 0,0 C 93 % 1007,5 hPa 0,0 l/m 0 min 0 min 0 W/m 3,2 km/h (1 Bft) 94,12 %
08.12.2022 23:04 2,7 C 2,2 C 0,0 C 93 % 1007,5 hPa 0,0 l/m 0 min 0 min 0 W/m 3,2 km/h (1 Bft) 100,00 %
08.12.2022 23:06 2,7 C 2,2 C 0,0 C 93 % 1007,6 hPa 0,0 l/m 0 min 0 min 0 W/m 6,4 km/h (2 Bft) 93,48 %
08.12.2022 23:08 2,7 C 2,2 C 0,0 C 93 % 1007,6 hPa 0,0 l/m 0 min 0 min 0 W/m 3,2 km/h (1 Bft) 98,11 %
08.12.2022 23:10 2,7 C 2,2 C 0,0 C 93 % 1007,6 hPa 0,0 l/m 0 min 0 min 0 W/m 9,7 km/h (2 Bft) 97,22 %
08.12.2022 23:12 2,7 C 2,2 C 0,0 C 92 % 1007,5 hPa 0,0 l/m 0 min 0 min 0 W/m 3,2 km/h (1 Bft) 96,30 %
08.12.2022 23:14 2,7 C 2,2 C 0,0 C 92 % 1007,6 hPa 0,0 l/m 0 min 0 min 0 W/m 6,4 km/h (2 Bft) 97,87 %
08.12.2022 23:16 2,7 C 2,2 C 0,0 C 92 % 1007,6 hPa 0,0 l/m 0 min 0 min 0 W/m 6,4 km/h (2 Bft) 97,87 %
08.12.2022 23:18 2,7 C 2,2 C 0,0 C 92 % 1007,6 hPa 0,0 l/m 0 min 0 min 0 W/m 6,4 km/h (2 Bft) 100,00 %
08.12.2022 23:20 2,7 C 2,2 C 0,0 C 92 % 1007,6 hPa 0,0 l/m 0 min 0 min 0 W/m 3,2 km/h (1 Bft) 100,00 %
08.12.2022 23:22 2,7 C 2,2 C 0,0 C 92 % 1007,6 hPa 0,0 l/m 0 min 0 min 0 W/m 6,4 km/h (2 Bft) 100,00 %
08.12.2022 23:24 2,7 C 2,2 C 0,0 C 92 % 1007,5 hPa 0,0 l/m 0 min 0 min 0 W/m 3,2 km/h (1 Bft) 97,44 %
08.12.2022 23:26 2,7 C 2,2 C 0,0 C 92 % 1007,6 hPa 0,0 l/m 0 min 0 min 0 W/m 6,4 km/h (2 Bft) 98,31 %
08.12.2022 23:28 2,7 C 2,2 C 0,0 C 92 % 1007,6 hPa 0,0 l/m 0 min 0 min 0 W/m 3,2 km/h (1 Bft) 97,62 %
08.12.2022 23:30 2,7 C 2,2 C 0,0 C 92 % 1007,6 hPa 0,0 l/m 0 min 0 min 0 W/m 3,2 km/h (1 Bft) 100,00 %
08.12.2022 23:32 2,7 C 2,2 C 0,0 C 92 % 1007,6 hPa 0,0 l/m 0 min 0 min 0 W/m 3,2 km/h (1 Bft) 100,00 %
08.12.2022 23:34 2,7 C 2,2 C 0,0 C 92 % 1007,6 hPa 0,0 l/m 0 min 0 min 0 W/m 3,2 km/h (1 Bft) 95,83 %
08.12.2022 23:36 2,7 C 2,2 C 0,0 C 92 % 1007,6 hPa 0,0 l/m 0 min 0 min 0 W/m 3,2 km/h (1 Bft) 100,00 %
08.12.2022 23:38 2,7 C 2,2 C 0,0 C 92 % 1007,5 hPa 0,0 l/m 0 min 0 min 0 W/m 3,2 km/h (1 Bft) 100,00 %
08.12.2022 23:40 2,7 C 2,2 C 0,0 C 92 % 1007,6 hPa 0,0 l/m 0 min 0 min 0 W/m 3,2 km/h (1 Bft) 97,92 %
08.12.2022 23:42 2,7 C 2,2 C 0,0 C 92 % 1007,6 hPa 0,0 l/m 0 min 0 min 0 W/m 6,4 km/h (2 Bft) 98,11 %
08.12.2022 23:44 2,7 C 2,2 C 0,0 C 92 % 1007,6 hPa 0,0 l/m 0 min 0 min 0 W/m 0,0 km/h (0 Bft) 100,00 %
08.12.2022 23:46 2,7 C 2,2 C 0,0 C 92 % 1007,6 hPa 0,0 l/m 0 min 0 min 0 W/m 6,4 km/h (2 Bft) 95,65 %
08.12.2022 23:48 2,7 C 2,2 C 0,0 C 92 % 1007,5 hPa 0,0 l/m 0 min 0 min 0 W/m 6,4 km/h (2 Bft) 97,67 %
08.12.2022 23:50 2,7 C 2,2 C 0,0 C 92 % 1007,5 hPa 0,0 l/m 0 min 0 min 0 W/m 9,7 km/h (2 Bft) 100,00 %
08.12.2022 23:52 2,7 C 2,2 C 0,0 C 92 % 1007,5 hPa 0,0 l/m 0 min 0 min 0 W/m 6,4 km/h (2 Bft) 95,35 %
08.12.2022 23:54 2,7 C 2,2 C 0,0 C 92 % 1007,5 hPa 0,0 l/m 0 min 0 min 0 W/m 6,4 km/h (2 Bft) 97,87 %
08.12.2022 23:56 2,7 C 2,2 C 0,0 C 92 % 1007,5 hPa 0,0 l/m 0 min 0 min 0 W/m 6,4 km/h (2 Bft) 100,00 %
08.12.2022 23:58 2,7 C 2,2 C 0,0 C 92 % 1007,5 hPa 0,0 l/m 0 min 0 min 0 W/m 6,4 km/h (2 Bft) 94,12 %
_ Min-Zeit 20:58 20:38 20:48 15:44 15:14 - - - - 00:42 14:02
Minimum _ 2,2 C 1,1 C -1,1 C 89 % 1007,2 hPa - - - - 0,0 km/h (0 Bft) 44,44 %
_ Max-Zeit 15:08 14:42 12:08 02:26 00:00 06:54 00:00 07:25 11:48 13:12 00:48
Maximum _ 4,5 C 4,4 C 1,7 C 97 % 1012,3 hPa 0,2 l/m 0 min 5 min 113 W/m 25,7 km/h
S-SO (4 Bft)
100,00 %
Durchschnitt _ 3,6 C 3,1 C 0,8 C 94 % 1008,6 hPa #1,4 l/m #0 min. #4:14 h 42 W/m 8,0 km/h (2 Bft) 97,15 %
© 2022 W. Hausmann